PWSweather.com
Personal Weather Stations
Station Observations
KUTEAGLE26
Meadow Ranch, Eagle Mountain, UT 84005

Meadow RanchEagle Mountain, UT 84005

Lat: 40.39, Lon: -111.985

Elevation: 5140

Station Type: Davis Vantage Pro 2

Latest ConditionsUpdated 7:09:00 AM MDT Wednesday, Jun 26, 2019
Currently Today's Max Today's Min Today's Average
Temperature 67.3°F19.6°C 74.0°F23.3°C 63.2°F17.3°C 66.6°F19.2°C
Dew Point 35.6°F2.0°C 35.6°F2.0°C 20.8°F-6.2°C 25.9°F-3.4°C
Winds 3.0 mph E4.8 kmh E 11.0 mph -17.7 kmh - - 3.2 mph 5.1 kmh
Wind Gusts 4.0 mph6.4 kmh 14.0 mph22.5 kmh - -
Humidity 31% 31% 14% 22%
Pressure 29.67 in1004.7 mb 29.67 in1004.7 mb 29.63 in1003.4 mb -
Hour Temp Dew Point Humidity Winds Wind Gusts Pressure Precip Precip Rate Daily Precip Total
07:09 AM 67.3°F19.6°C 35.6°F2.0°C 31% 3.0 mph E4.8 kmh E 4.0 mph6.4 kmh 29.67 in1004.7 mb 0.00 in0.0 mm 0.00 in0.0 mm 0.00 in0.0 mm
07:08 AM 67.3°F19.6°C 35.6°F2.0°C 31% 3.0 mph E4.8 kmh E 4.0 mph6.4 kmh 29.67 in1004.7 mb 0.00 in0.0 mm 0.00 in0.0 mm 0.00 in0.0 mm
07:07 AM 67.2°F19.6°C 35.5°F1.9°C 31% 4.0 mph E6.4 kmh E 5.0 mph8.0 kmh 29.67 in1004.7 mb 0.00 in0.0 mm 0.00 in0.0 mm 0.00 in0.0 mm
07:06 AM 67.3°F19.6°C 34.8°F1.6°C 30% 4.0 mph ENE6.4 kmh ENE 5.0 mph8.0 kmh 29.67 in1004.7 mb 0.00 in0.0 mm 0.00 in0.0 mm 0.00 in0.0 mm
07:05 AM 67.2°F19.6°C 34.7°F1.5°C 30% 4.0 mph ENE6.4 kmh ENE 5.0 mph8.0 kmh 29.67 in1004.7 mb 0.00 in0.0 mm 0.00 in0.0 mm 0.00 in0.0 mm
07:04 AM 67.1°F19.5°C 34.6°F1.4°C 30% 4.0 mph ENE6.4 kmh ENE 5.0 mph8.0 kmh 29.67 in1004.7 mb 0.00 in0.0 mm 0.00 in0.0 mm 0.00 in0.0 mm
07:03 AM 67.0°F19.4°C 34.5°F1.4°C 30% 4.0 mph ENE6.4 kmh ENE 5.0 mph8.0 kmh 29.67 in1004.7 mb 0.00 in0.0 mm 0.00 in0.0 mm 0.00 in0.0 mm
07:02 AM 67.1°F19.5°C 34.6°F1.4°C 30% 4.0 mph E6.4 kmh E 5.0 mph8.0 kmh 29.67 in1004.7 mb 0.00 in0.0 mm 0.00 in0.0 mm 0.00 in0.0 mm
07:01 AM 67.1°F19.5°C 34.6°F1.4°C 30% 3.0 mph ENE4.8 kmh ENE 5.0 mph8.0 kmh 29.67 in1004.7 mb 0.00 in0.0 mm 0.00 in0.0 mm 0.00 in0.0 mm
07:00 AM 67.0°F19.4°C 34.5°F1.4°C 30% 4.0 mph E6.4 kmh E 6.0 mph9.7 kmh 29.67 in1004.7 mb 0.00 in0.0 mm 0.00 in0.0 mm 0.00 in0.0 mm
06:59 AM 67.0°F19.4°C 33.7°F0.9°C 29% 4.0 mph ENE6.4 kmh ENE 5.0 mph8.0 kmh 29.67 in1004.7 mb 0.00 in0.0 mm 0.00 in0.0 mm 0.00 in0.0 mm
06:58 AM 66.9°F19.4°C 34.5°F1.4°C 30% 4.0 mph ENE6.4 kmh ENE 5.0 mph8.0 kmh 29.67 in1004.7 mb 0.00 in0.0 mm 0.00 in0.0 mm 0.00 in0.0 mm
06:57 AM 66.9°F19.4°C 35.3°F1.8°C 31% 3.0 mph NE4.8 kmh NE 4.0 mph6.4 kmh 29.67 in1004.7 mb 0.00 in0.0 mm 0.00 in0.0 mm 0.00 in0.0 mm
06:56 AM 66.7°F19.3°C 34.3°F1.3°C 30% 2.0 mph NE3.2 kmh NE 2.0 mph3.2 kmh 29.67 in1004.7 mb 0.00 in0.0 mm 0.00 in0.0 mm 0.00 in0.0 mm
06:55 AM 66.6°F19.2°C 34.2°F1.2°C 30% 2.0 mph NE3.2 kmh NE 3.0 mph4.8 kmh 29.67 in1004.7 mb 0.00 in0.0 mm 0.00 in0.0 mm 0.00 in0.0 mm
06:54 AM 66.6°F19.2°C 34.2°F1.2°C 30% 2.0 mph NE3.2 kmh NE 2.0 mph3.2 kmh 29.67 in1004.7 mb 0.00 in0.0 mm 0.00 in0.0 mm 0.00 in0.0 mm
06:53 AM 66.5°F19.2°C 34.1°F1.2°C 30% 1.0 mph ENE1.6 kmh ENE 2.0 mph3.2 kmh 29.67 in1004.7 mb 0.00 in0.0 mm 0.00 in0.0 mm 0.00 in0.0 mm
06:52 AM 66.4°F19.1°C 34.0°F1.1°C 30% 2.0 mph ENE3.2 kmh ENE 2.0 mph3.2 kmh 29.66 in1004.4 mb 0.00 in0.0 mm 0.00 in0.0 mm 0.00 in0.0 mm
06:51 AM 66.3°F19.1°C 33.9°F1.1°C 30% 2.0 mph ENE3.2 kmh ENE 3.0 mph4.8 kmh 29.67 in1004.7 mb 0.00 in0.0 mm 0.00 in0.0 mm 0.00 in0.0 mm
06:50 AM 66.1°F18.9°C 33.8°F1.0°C 30% 2.0 mph ENE3.2 kmh ENE 3.0 mph4.8 kmh 29.66 in1004.4 mb 0.00 in0.0 mm 0.00 in0.0 mm 0.00 in0.0 mm
06:49 AM 66.0°F18.9°C 33.7°F0.9°C 30% 2.0 mph ENE3.2 kmh ENE 3.0 mph4.8 kmh 29.67 in1004.7 mb 0.00 in0.0 mm 0.00 in0.0 mm 0.00 in0.0 mm
06:48 AM 65.9°F18.8°C 33.6°F0.9°C 30% 2.0 mph E3.2 kmh E 3.0 mph4.8 kmh 29.66 in1004.4 mb 0.00 in0.0 mm 0.00 in0.0 mm 0.00 in0.0 mm
06:47 AM 65.7°F18.7°C 33.4°F0.8°C 30% 3.0 mph E4.8 kmh E 4.0 mph6.4 kmh 29.67 in1004.7 mb 0.00 in0.0 mm 0.00 in0.0 mm 0.00 in0.0 mm
06:46 AM 65.5°F18.6°C 33.2°F0.7°C 30% 3.0 mph ENE4.8 kmh ENE 4.0 mph6.4 kmh 29.67 in1004.7 mb 0.00 in0.0 mm 0.00 in0.0 mm 0.00 in0.0 mm
06:45 AM 65.4°F18.6°C 33.2°F0.7°C 30% 3.0 mph ENE4.8 kmh ENE 3.0 mph4.8 kmh 29.66 in1004.4 mb 0.00 in0.0 mm 0.00 in0.0 mm 0.00 in0.0 mm
06:44 AM 65.2°F18.4°C 33.0°F0.6°C 30% 2.0 mph ENE3.2 kmh ENE 4.0 mph6.4 kmh 29.67 in1004.7 mb 0.00 in0.0 mm 0.00 in0.0 mm 0.00 in0.0 mm
06:43 AM 65.2°F18.4°C 33.0°F0.6°C 30% 2.0 mph ENE3.2 kmh ENE 2.0 mph3.2 kmh 29.66 in1004.4 mb 0.00 in0.0 mm 0.00 in0.0 mm 0.00 in0.0 mm
06:42 AM 65.1°F18.4°C 32.9°F0.5°C 30% 1.0 mph ENE1.6 kmh ENE 2.0 mph3.2 kmh 29.67 in1004.7 mb 0.00 in0.0 mm 0.00 in0.0 mm 0.00 in0.0 mm
06:41 AM 65.1°F18.4°C 33.7°F0.9°C 31% 1.0 mph ENE1.6 kmh ENE 2.0 mph3.2 kmh 29.66 in1004.4 mb 0.00 in0.0 mm 0.00 in0.0 mm 0.00 in0.0 mm
06:40 AM 65.0°F18.3°C 32.8°F0.4°C 30% 1.0 mph ENE1.6 kmh ENE 1.0 mph1.6 kmh 29.66 in1004.4 mb 0.00 in0.0 mm 0.00 in0.0 mm 0.00 in0.0 mm
06:39 AM 64.9°F18.3°C 33.5°F0.8°C 31% 1.0 mph ENE1.6 kmh ENE 2.0 mph3.2 kmh 29.66 in1004.4 mb 0.00 in0.0 mm 0.00 in0.0 mm 0.00 in0.0 mm
06:38 AM 64.8°F18.2°C 32.6°F0.3°C 30% 2.0 mph ENE3.2 kmh ENE 2.0 mph3.2 kmh 29.66 in1004.4 mb 0.00 in0.0 mm 0.00 in0.0 mm 0.00 in0.0 mm
06:37 AM 64.6°F18.1°C 32.5°F0.3°C 30% 2.0 mph ENE3.2 kmh ENE 3.0 mph4.8 kmh 29.66 in1004.4 mb 0.00 in0.0 mm 0.00 in0.0 mm 0.00 in0.0 mm
06:36 AM 64.5°F18.1°C 32.4°F0.2°C 30% 2.0 mph NE3.2 kmh NE 3.0 mph4.8 kmh 29.66 in1004.4 mb 0.00 in0.0 mm 0.00 in0.0 mm 0.00 in0.0 mm
06:35 AM 64.4°F18.0°C 33.1°F0.6°C 31% 3.0 mph NNE4.8 kmh NNE 4.0 mph6.4 kmh 29.66 in1004.4 mb 0.00 in0.0 mm 0.00 in0.0 mm 0.00 in0.0 mm
06:34 AM 64.4°F18.0°C 32.3°F0.2°C 30% 3.0 mph NNE4.8 kmh NNE 4.0 mph6.4 kmh 29.66 in1004.4 mb 0.00 in0.0 mm 0.00 in0.0 mm 0.00 in0.0 mm
06:33 AM 64.4°F18.0°C 33.1°F0.6°C 31% 3.0 mph NNE4.8 kmh NNE 4.0 mph6.4 kmh 29.66 in1004.4 mb 0.00 in0.0 mm 0.00 in0.0 mm 0.00 in0.0 mm
06:32 AM 64.4°F18.0°C 33.1°F0.6°C 31% 2.0 mph NNE3.2 kmh NNE 3.0 mph4.8 kmh 29.66 in1004.4 mb 0.00 in0.0 mm 0.00 in0.0 mm 0.00 in0.0 mm
06:31 AM 64.5°F18.1°C 33.2°F0.7°C 31% 3.0 mph NNE4.8 kmh NNE 3.0 mph4.8 kmh 29.66 in1004.4 mb 0.00 in0.0 mm 0.00 in0.0 mm 0.00 in0.0 mm
06:30 AM 64.5°F18.1°C 33.2°F0.7°C 31% 2.0 mph NNE3.2 kmh NNE 3.0 mph4.8 kmh 29.66 in1004.4 mb 0.00 in0.0 mm 0.00 in0.0 mm 0.00 in0.0 mm
06:29 AM 64.5°F18.1°C 33.2°F0.7°C 31% 2.0 mph NNE3.2 kmh NNE 3.0 mph4.8 kmh 29.66 in1004.4 mb 0.00 in0.0 mm 0.00 in0.0 mm 0.00 in0.0 mm
06:28 AM 64.5°F18.1°C 33.2°F0.7°C 31% 2.0 mph NNE3.2 kmh NNE 3.0 mph4.8 kmh 29.66 in1004.4 mb 0.00 in0.0 mm 0.00 in0.0 mm 0.00 in0.0 mm
06:27 AM 64.4°F18.0°C 33.1°F0.6°C 31% 2.0 mph ENE3.2 kmh ENE 2.0 mph3.2 kmh 29.66 in1004.4 mb 0.00 in0.0 mm 0.00 in0.0 mm 0.00 in0.0 mm
06:26 AM 64.2°F17.9°C 32.9°F0.5°C 31% 2.0 mph ENE3.2 kmh ENE 3.0 mph4.8 kmh 29.66 in1004.4 mb 0.00 in0.0 mm 0.00 in0.0 mm 0.00 in0.0 mm
06:25 AM 64.0°F17.8°C 31.9°F-0.1°C 30% 2.0 mph ENE3.2 kmh ENE 4.0 mph6.4 kmh 29.66 in1004.4 mb 0.00 in0.0 mm 0.00 in0.0 mm 0.00 in0.0 mm
06:24 AM 63.9°F17.7°C 31.9°F-0.1°C 30% 1.0 mph ENE1.6 kmh ENE 3.0 mph4.8 kmh 29.66 in1004.4 mb 0.00 in0.0 mm 0.00 in0.0 mm 0.00 in0.0 mm
06:23 AM 63.7°F17.6°C 32.5°F0.3°C 31% 2.0 mph NNE3.2 kmh NNE 2.0 mph3.2 kmh 29.66 in1004.4 mb 0.00 in0.0 mm 0.00 in0.0 mm 0.00 in0.0 mm
06:22 AM 63.6°F17.6°C 32.4°F0.2°C 31% 2.0 mph 3.2 kmh 3.0 mph4.8 kmh 29.66 in1004.4 mb 0.00 in0.0 mm 0.00 in0.0 mm 0.00 in0.0 mm
06:21 AM 63.5°F17.5°C 32.3°F0.2°C 31% 2.0 mph 3.2 kmh 2.0 mph3.2 kmh 29.66 in1004.4 mb 0.00 in0.0 mm 0.00 in0.0 mm 0.00 in0.0 mm
06:20 AM 63.4°F17.4°C 32.2°F0.1°C 31% 2.0 mph 3.2 kmh 3.0 mph4.8 kmh 29.66 in1004.4 mb 0.00 in0.0 mm 0.00 in0.0 mm 0.00 in0.0 mm
06:19 AM 63.4°F17.4°C 32.2°F0.1°C 31% 3.0 mph 4.8 kmh 4.0 mph6.4 kmh 29.66 in1004.4 mb 0.00 in0.0 mm 0.00 in0.0 mm 0.00 in0.0 mm
06:18 AM 63.4°F17.4°C 32.2°F0.1°C 31% 3.0 mph 4.8 kmh 3.0 mph4.8 kmh 29.66 in1004.4 mb 0.00 in0.0 mm 0.00 in0.0 mm 0.00 in0.0 mm
06:17 AM 63.4°F17.4°C 32.2°F0.1°C 31% 3.0 mph 4.8 kmh 4.0 mph6.4 kmh 29.66 in1004.4 mb 0.00 in0.0 mm 0.00 in0.0 mm 0.00 in0.0 mm
06:16 AM 63.4°F17.4°C 32.2°F0.1°C 31% 3.0 mph NNW4.8 kmh NNW 4.0 mph6.4 kmh 29.66 in1004.4 mb 0.00 in0.0 mm 0.00 in0.0 mm 0.00 in0.0 mm
06:15 AM 63.5°F17.5°C 32.3°F0.2°C 31% 3.0 mph NNW4.8 kmh NNW 4.0 mph6.4 kmh 29.66 in1004.4 mb 0.00 in0.0 mm 0.00 in0.0 mm 0.00 in0.0 mm
06:14 AM 63.6°F17.6°C 32.4°F0.2°C 31% 2.0 mph NNW3.2 kmh NNW 3.0 mph4.8 kmh 29.66 in1004.4 mb 0.00 in0.0 mm 0.00 in0.0 mm 0.00 in0.0 mm
06:13 AM 63.7°F17.6°C 32.5°F0.3°C 31% 2.0 mph NNW3.2 kmh NNW 3.0 mph4.8 kmh 29.66 in1004.4 mb 0.00 in0.0 mm 0.00 in0.0 mm 0.00 in0.0 mm
06:12 AM 63.8°F17.7°C 32.6°F0.3°C 31% 3.0 mph NNW4.8 kmh NNW 4.0 mph6.4 kmh 29.66 in1004.4 mb 0.00 in0.0 mm 0.00 in0.0 mm 0.00 in0.0 mm
06:11 AM 63.8°F17.7°C 31.8°F-0.1°C 30% 2.0 mph NNW3.2 kmh NNW 4.0 mph6.4 kmh 29.66 in1004.4 mb 0.00 in0.0 mm 0.00 in0.0 mm 0.00 in0.0 mm
06:10 AM 63.9°F17.7°C 31.9°F-0.1°C 30% 2.0 mph NNW3.2 kmh NNW 2.0 mph3.2 kmh 29.66 in1004.4 mb 0.00 in0.0 mm 0.00 in0.0 mm 0.00 in0.0 mm
06:09 AM 64.0°F17.8°C 31.9°F-0.1°C 30% 2.0 mph NNW3.2 kmh NNW 4.0 mph6.4 kmh 29.66 in1004.4 mb 0.00 in0.0 mm 0.00 in0.0 mm 0.00 in0.0 mm
06:08 AM 64.1°F17.8°C 32.0°F0.0°C 30% 4.0 mph NNW6.4 kmh NNW 5.0 mph8.0 kmh 29.66 in1004.4 mb 0.00 in0.0 mm 0.00 in0.0 mm 0.00 in0.0 mm
06:07 AM 64.3°F17.9°C 32.2°F0.1°C 30% 3.0 mph 4.8 kmh 5.0 mph8.0 kmh 29.66 in1004.4 mb 0.00 in0.0 mm 0.00 in0.0 mm 0.00 in0.0 mm
06:06 AM 64.3°F17.9°C 31.4°F-0.3°C 29% 4.0 mph 6.4 kmh 4.0 mph6.4 kmh 29.66 in1004.4 mb 0.00 in0.0 mm 0.00 in0.0 mm 0.00 in0.0 mm
06:05 AM 64.5°F18.1°C 31.5°F-0.3°C 29% 4.0 mph 6.4 kmh 4.0 mph6.4 kmh 29.66 in1004.4 mb 0.00 in0.0 mm 0.00 in0.0 mm 0.00 in0.0 mm
06:04 AM 64.7°F18.2°C 30.8°F-0.7°C 28% 2.0 mph NNW3.2 kmh NNW 4.0 mph6.4 kmh 29.66 in1004.4 mb 0.00 in0.0 mm 0.00 in0.0 mm 0.00 in0.0 mm
06:03 AM 64.7°F18.2°C 30.8°F-0.7°C 28% 3.0 mph NNW4.8 kmh NNW 3.0 mph4.8 kmh 29.66 in1004.4 mb 0.00 in0.0 mm 0.00 in0.0 mm 0.00 in0.0 mm
06:02 AM 64.7°F18.2°C 30.8°F-0.7°C 28% 4.0 mph NNW6.4 kmh NNW 4.0 mph6.4 kmh 29.66 in1004.4 mb 0.00 in0.0 mm 0.00 in0.0 mm 0.00 in0.0 mm
06:01 AM 64.9°F18.3°C 31.0°F-0.6°C 28% 3.0 mph NNW4.8 kmh NNW 5.0 mph8.0 kmh 29.66 in1004.4 mb 0.00 in0.0 mm 0.00 in0.0 mm 0.00 in0.0 mm
06:00 AM 65.0°F18.3°C 31.1°F-0.5°C 28% 4.0 mph NNW6.4 kmh NNW 5.0 mph8.0 kmh 29.66 in1004.4 mb 0.00 in0.0 mm 0.00 in0.0 mm 0.00 in0.0 mm
05:59 AM 65.1°F18.4°C 31.2°F-0.4°C 28% 4.0 mph NNW6.4 kmh NNW 5.0 mph8.0 kmh 29.66 in1004.4 mb 0.00 in0.0 mm 0.00 in0.0 mm 0.00 in0.0 mm
05:58 AM 65.2°F18.4°C 31.3°F-0.4°C 28% 2.0 mph 3.2 kmh 5.0 mph8.0 kmh 29.66 in1004.4 mb 0.00 in0.0 mm 0.00 in0.0 mm 0.00 in0.0 mm
05:57 AM 65.3°F18.5°C 31.4°F-0.3°C 28% 1.0 mph ESE1.6 kmh ESE 2.0 mph3.2 kmh 29.66 in1004.4 mb 0.00 in0.0 mm 0.00 in0.0 mm 0.00 in0.0 mm
05:56 AM 65.3°F18.5°C 31.4°F-0.3°C 28% 1.0 mph SE1.6 kmh SE 2.0 mph3.2 kmh 29.66 in1004.4 mb 0.00 in0.0 mm 0.00 in0.0 mm 0.00 in0.0 mm
05:55 AM 65.2°F18.4°C 30.4°F-0.9°C 27% 1.0 mph SE1.6 kmh SE 1.0 mph1.6 kmh 29.66 in1004.4 mb 0.00 in0.0 mm 0.00 in0.0 mm 0.00 in0.0 mm
05:54 AM 65.2°F18.4°C 31.3°F-0.4°C 28% Calm Calm 1.0 mph1.6 kmh 29.66 in1004.4 mb 0.00 in0.0 mm 0.00 in0.0 mm 0.00 in0.0 mm
05:53 AM 65.0°F18.3°C 31.1°F-0.5°C 28% Calm Calm 1.0 mph1.6 kmh 29.66 in1004.4 mb 0.00 in0.0 mm 0.00 in0.0 mm 0.00 in0.0 mm
05:52 AM 64.8°F18.2°C 30.9°F-0.6°C 28% 1.0 mph SE1.6 kmh SE 2.0 mph3.2 kmh 29.66 in1004.4 mb 0.00 in0.0 mm 0.00 in0.0 mm 0.00 in0.0 mm
05:51 AM 64.6°F18.1°C 30.8°F-0.7°C 28% 2.0 mph SE3.2 kmh SE 3.0 mph4.8 kmh 29.66 in1004.4 mb 0.00 in0.0 mm 0.00 in0.0 mm 0.00 in0.0 mm
05:50 AM 64.5°F18.1°C 30.7°F-0.7°C 28% 2.0 mph SE3.2 kmh SE 4.0 mph6.4 kmh 29.66 in1004.4 mb 0.00 in0.0 mm 0.00 in0.0 mm 0.00 in0.0 mm
05:49 AM 64.4°F18.0°C 28.8°F-1.8°C 26% Calm Calm 2.0 mph3.2 kmh 29.66 in1004.4 mb 0.00 in0.0 mm 0.00 in0.0 mm 0.00 in0.0 mm
05:48 AM 64.3°F17.9°C 27.7°F-2.4°C 25% 1.0 mph ENE1.6 kmh ENE 2.0 mph3.2 kmh 29.66 in1004.4 mb 0.00 in0.0 mm 0.00 in0.0 mm 0.00 in0.0 mm
05:47 AM 64.2°F17.9°C 26.7°F-2.9°C 24% 2.0 mph ENE3.2 kmh ENE 3.0 mph4.8 kmh 29.66 in1004.4 mb 0.00 in0.0 mm 0.00 in0.0 mm 0.00 in0.0 mm
05:46 AM 64.2°F17.9°C 26.7°F-2.9°C 24% 1.0 mph NNE1.6 kmh NNE 3.0 mph4.8 kmh 29.66 in1004.4 mb 0.00 in0.0 mm 0.00 in0.0 mm 0.00 in0.0 mm
05:45 AM 64.2°F17.9°C 26.7°F-2.9°C 24% 2.0 mph NNE3.2 kmh NNE 2.0 mph3.2 kmh 29.66 in1004.4 mb 0.00 in0.0 mm 0.00 in0.0 mm 0.00 in0.0 mm
05:44 AM 64.2°F17.9°C 26.7°F-2.9°C 24% 2.0 mph NNE3.2 kmh NNE 2.0 mph3.2 kmh 29.66 in1004.4 mb 0.00 in0.0 mm 0.00 in0.0 mm 0.00 in0.0 mm
05:43 AM 64.1°F17.8°C 25.5°F-3.6°C 23% Calm Calm -- 29.66 in1004.4 mb 0.00 in0.0 mm 0.00 in0.0 mm 0.00 in0.0 mm
05:42 AM 64.0°F17.8°C 24.4°F-4.2°C 22% Calm Calm -- 29.66 in1004.4 mb 0.00 in0.0 mm 0.00 in0.0 mm 0.00 in0.0 mm
05:41 AM 63.9°F17.7°C 25.4°F-3.7°C 23% Calm Calm -- 29.66 in1004.4 mb 0.00 in0.0 mm 0.00 in0.0 mm 0.00 in0.0 mm
05:40 AM 63.8°F17.7°C 25.3°F-3.7°C 23% Calm Calm -- 29.66 in1004.4 mb 0.00 in0.0 mm 0.00 in0.0 mm 0.00 in0.0 mm
05:39 AM 63.7°F17.6°C 25.2°F-3.8°C 23% Calm Calm 1.0 mph1.6 kmh 29.66 in1004.4 mb 0.00 in0.0 mm 0.00 in0.0 mm 0.00 in0.0 mm
05:38 AM 63.6°F17.6°C 25.1°F-3.8°C 23% 1.0 mph NNE1.6 kmh NNE 1.0 mph1.6 kmh 29.66 in1004.4 mb 0.00 in0.0 mm 0.00 in0.0 mm 0.00 in0.0 mm
05:37 AM 63.4°F17.4°C 25.0°F-3.9°C 23% 1.0 mph NNE1.6 kmh NNE 2.0 mph3.2 kmh 29.66 in1004.4 mb 0.00 in0.0 mm 0.00 in0.0 mm 0.00 in0.0 mm
05:36 AM 63.4°F17.4°C 26.0°F-3.3°C 24% 2.0 mph NNE3.2 kmh NNE 3.0 mph4.8 kmh 29.66 in1004.4 mb 0.00 in0.0 mm 0.00 in0.0 mm 0.00 in0.0 mm
05:35 AM 63.3°F17.4°C 25.9°F-3.4°C 24% 2.0 mph 3.2 kmh 3.0 mph4.8 kmh 29.66 in1004.4 mb 0.00 in0.0 mm 0.00 in0.0 mm 0.00 in0.0 mm
05:34 AM 63.2°F17.3°C 25.8°F-3.4°C 24% 1.0 mph 1.6 kmh 2.0 mph3.2 kmh 29.66 in1004.4 mb 0.00 in0.0 mm 0.00 in0.0 mm 0.00 in0.0 mm
05:33 AM 63.2°F17.3°C 25.8°F-3.4°C 24% 2.0 mph 3.2 kmh 2.0 mph3.2 kmh 29.66 in1004.4 mb 0.00 in0.0 mm 0.00 in0.0 mm 0.00 in0.0 mm
05:32 AM 63.2°F17.3°C 25.8°F-3.4°C 24% 2.0 mph 3.2 kmh 3.0 mph4.8 kmh 29.66 in1004.4 mb 0.00 in0.0 mm 0.00 in0.0 mm 0.00 in0.0 mm
05:31 AM 63.2°F17.3°C 25.8°F-3.4°C 24% 4.0 mph NNW6.4 kmh NNW 4.0 mph6.4 kmh 29.66 in1004.4 mb 0.00 in0.0 mm 0.00 in0.0 mm 0.00 in0.0 mm
05:30 AM 63.2°F17.3°C 25.8°F-3.4°C 24% 4.0 mph NNW6.4 kmh NNW 4.0 mph6.4 kmh 29.66 in1004.4 mb 0.00 in0.0 mm 0.00 in0.0 mm 0.00 in0.0 mm
05:29 AM 63.2°F17.3°C 25.8°F-3.4°C 24% 3.0 mph NNW4.8 kmh NNW 4.0 mph6.4 kmh 29.66 in1004.4 mb 0.00 in0.0 mm 0.00 in0.0 mm 0.00 in0.0 mm
05:28 AM 63.3°F17.4°C 25.9°F-3.4°C 24% 3.0 mph NNW4.8 kmh NNW 4.0 mph6.4 kmh 29.65 in1004.1 mb 0.00 in0.0 mm 0.00 in0.0 mm 0.00 in0.0 mm
05:27 AM 63.4°F17.4°C 26.0°F-3.3°C 24% 3.0 mph NNW4.8 kmh NNW 4.0 mph6.4 kmh 29.66 in1004.4 mb 0.00 in0.0 mm 0.00 in0.0 mm 0.00 in0.0 mm
05:26 AM 63.5°F17.5°C 26.1°F-3.3°C 24% 3.0 mph NNW4.8 kmh NNW 3.0 mph4.8 kmh 29.66 in1004.4 mb 0.00 in0.0 mm 0.00 in0.0 mm 0.00 in0.0 mm
05:25 AM 63.7°F17.6°C 26.2°F-3.2°C 24% 2.0 mph NNW3.2 kmh NNW 3.0 mph4.8 kmh 29.66 in1004.4 mb 0.00 in0.0 mm 0.00 in0.0 mm 0.00 in0.0 mm
05:24 AM 63.8°F17.7°C 26.3°F-3.2°C 24% 2.0 mph NNW3.2 kmh NNW 3.0 mph4.8 kmh 29.66 in1004.4 mb 0.00 in0.0 mm 0.00 in0.0 mm 0.00 in0.0 mm
05:23 AM 63.9°F17.7°C 26.4°F-3.1°C 24% 2.0 mph NNW3.2 kmh NNW 3.0 mph4.8 kmh 29.65 in1004.1 mb 0.00 in0.0 mm 0.00 in0.0 mm 0.00 in0.0 mm
05:22 AM 64.1°F17.8°C 26.6°F-3.0°C 24% 2.0 mph NNW3.2 kmh NNW 3.0 mph4.8 kmh 29.66 in1004.4 mb 0.00 in0.0 mm 0.00 in0.0 mm 0.00 in0.0 mm
05:21 AM 64.3°F17.9°C 25.7°F-3.5°C 23% 1.0 mph NNW1.6 kmh NNW 2.0 mph3.2 kmh 29.66 in1004.4 mb 0.00 in0.0 mm 0.00 in0.0 mm 0.00 in0.0 mm
05:20 AM 64.4°F18.0°C 25.8°F-3.4°C 23% 1.0 mph NNW1.6 kmh NNW 2.0 mph3.2 kmh 29.66 in1004.4 mb 0.00 in0.0 mm 0.00 in0.0 mm 0.00 in0.0 mm
05:19 AM 64.4°F18.0°C 25.8°F-3.4°C 23% 2.0 mph NNW3.2 kmh NNW 3.0 mph4.8 kmh 29.65 in1004.1 mb 0.00 in0.0 mm 0.00 in0.0 mm 0.00 in0.0 mm
05:18 AM 64.6°F18.1°C 26.0°F-3.3°C 23% 3.0 mph NNW4.8 kmh NNW 4.0 mph6.4 kmh 29.65 in1004.1 mb 0.00 in0.0 mm 0.00 in0.0 mm 0.00 in0.0 mm
05:17 AM 64.6°F18.1°C 26.0°F-3.3°C 23% 3.0 mph NNW4.8 kmh NNW 4.0 mph6.4 kmh 29.66 in1004.4 mb 0.00 in0.0 mm 0.00 in0.0 mm 0.00 in0.0 mm
05:16 AM 64.6°F18.1°C 26.0°F-3.3°C 23% 3.0 mph NNW4.8 kmh NNW 4.0 mph6.4 kmh 29.65 in1004.1 mb 0.00 in0.0 mm 0.00 in0.0 mm 0.00 in0.0 mm
05:15 AM 64.7°F18.2°C 26.1°F-3.3°C 23% 2.0 mph NW3.2 kmh NW 3.0 mph4.8 kmh 29.66 in1004.4 mb 0.00 in0.0 mm 0.00 in0.0 mm 0.00 in0.0 mm
05:14 AM 64.7°F18.2°C 26.1°F-3.3°C 23% 1.0 mph NW1.6 kmh NW 2.0 mph3.2 kmh 29.65 in1004.1 mb 0.00 in0.0 mm 0.00 in0.0 mm 0.00 in0.0 mm
05:13 AM 64.7°F18.2°C 26.1°F-3.3°C 23% 1.0 mph NW1.6 kmh NW 2.0 mph3.2 kmh 29.65 in1004.1 mb 0.00 in0.0 mm 0.00 in0.0 mm 0.00 in0.0 mm
05:12 AM 64.7°F18.2°C 26.1°F-3.3°C 23% 1.0 mph NW1.6 kmh NW 1.0 mph1.6 kmh 29.66 in1004.4 mb 0.00 in0.0 mm 0.00 in0.0 mm 0.00 in0.0 mm
05:11 AM 64.6°F18.1°C 24.9°F-3.9°C 22% Calm Calm 1.0 mph1.6 kmh 29.65 in1004.1 mb 0.00 in0.0 mm 0.00 in0.0 mm 0.00 in0.0 mm
05:10 AM 64.5°F18.1°C 24.8°F-4.0°C 22% 1.0 mph NW1.6 kmh NW 1.0 mph1.6 kmh 29.65 in1004.1 mb 0.00 in0.0 mm 0.00 in0.0 mm 0.00 in0.0 mm
05:09 AM 64.4°F18.0°C 25.8°F-3.4°C 23% 1.0 mph NW1.6 kmh NW 1.0 mph1.6 kmh 29.65 in1004.1 mb 0.00 in0.0 mm 0.00 in0.0 mm 0.00 in0.0 mm
05:08 AM 64.3°F17.9°C 25.7°F-3.5°C 23% 1.0 mph NW1.6 kmh NW 2.0 mph3.2 kmh 29.65 in1004.1 mb 0.00 in0.0 mm 0.00 in0.0 mm 0.00 in0.0 mm
05:07 AM 64.2°F17.9°C 25.6°F-3.6°C 23% 1.0 mph NW1.6 kmh NW 2.0 mph3.2 kmh 29.65 in1004.1 mb 0.00 in0.0 mm 0.00 in0.0 mm 0.00 in0.0 mm
05:06 AM 64.1°F17.8°C 25.5°F-3.6°C 23% 2.0 mph NW3.2 kmh NW 3.0 mph4.8 kmh 29.65 in1004.1 mb 0.00 in0.0 mm 0.00 in0.0 mm 0.00 in0.0 mm
05:05 AM 64.0°F17.8°C 25.5°F-3.6°C 23% 2.0 mph NW3.2 kmh NW 3.0 mph4.8 kmh 29.65 in1004.1 mb 0.00 in0.0 mm 0.00 in0.0 mm 0.00 in0.0 mm
05:04 AM 63.8°F17.7°C 25.3°F-3.7°C 23% 2.0 mph NW3.2 kmh NW 3.0 mph4.8 kmh 29.65 in1004.1 mb 0.00 in0.0 mm 0.00 in0.0 mm 0.00 in0.0 mm
05:03 AM 63.8°F17.7°C 25.3°F-3.7°C 23% 3.0 mph NW4.8 kmh NW 3.0 mph4.8 kmh 29.65 in1004.1 mb 0.00 in0.0 mm 0.00 in0.0 mm 0.00 in0.0 mm
05:02 AM 63.7°F17.6°C 26.2°F-3.2°C 24% 3.0 mph NNW4.8 kmh NNW 3.0 mph4.8 kmh 29.65 in1004.1 mb 0.00 in0.0 mm 0.00 in0.0 mm 0.00 in0.0 mm
05:01 AM 63.6°F17.6°C 26.2°F-3.2°C 24% 2.0 mph NNW3.2 kmh NNW 3.0 mph4.8 kmh 29.65 in1004.1 mb 0.00 in0.0 mm 0.00 in0.0 mm 0.00 in0.0 mm
05:00 AM 63.6°F17.6°C 25.1°F-3.8°C 23% 1.0 mph NNW1.6 kmh NNW 2.0 mph3.2 kmh 29.65 in1004.1 mb 0.00 in0.0 mm 0.00 in0.0 mm 0.00 in0.0 mm
04:59 AM 63.7°F17.6°C 25.2°F-3.8°C 23% 1.0 mph NNW1.6 kmh NNW 2.0 mph3.2 kmh 29.65 in1004.1 mb 0.00 in0.0 mm 0.00 in0.0 mm 0.00 in0.0 mm
04:58 AM 63.6°F17.6°C 25.1°F-3.8°C 23% 1.0 mph NNW1.6 kmh NNW 1.0 mph1.6 kmh 29.65 in1004.1 mb 0.00 in0.0 mm 0.00 in0.0 mm 0.00 in0.0 mm
04:57 AM 63.5°F17.5°C 25.0°F-3.9°C 23% 1.0 mph NNW1.6 kmh NNW 2.0 mph3.2 kmh 29.65 in1004.1 mb 0.00 in0.0 mm 0.00 in0.0 mm 0.00 in0.0 mm
04:56 AM 63.4°F17.4°C 25.0°F-3.9°C 23% Calm Calm 1.0 mph1.6 kmh 29.65 in1004.1 mb 0.00 in0.0 mm 0.00 in0.0 mm 0.00 in0.0 mm
04:55 AM 63.4°F17.4°C 25.0°F-3.9°C 23% 1.0 mph NNW1.6 kmh NNW 1.0 mph1.6 kmh 29.65 in1004.1 mb 0.00 in0.0 mm 0.00 in0.0 mm 0.00 in0.0 mm
04:54 AM 63.4°F17.4°C 26.0°F-3.3°C 24% 1.0 mph NNW1.6 kmh NNW 2.0 mph3.2 kmh 29.65 in1004.1 mb 0.00 in0.0 mm 0.00 in0.0 mm 0.00 in0.0 mm
04:53 AM 63.4°F17.4°C 26.0°F-3.3°C 24% 1.0 mph NNW1.6 kmh NNW 1.0 mph1.6 kmh 29.65 in1004.1 mb 0.00 in0.0 mm 0.00 in0.0 mm 0.00 in0.0 mm
04:52 AM 63.4°F17.4°C 26.0°F-3.3°C 24% 1.0 mph NNW1.6 kmh NNW 1.0 mph1.6 kmh 29.65 in1004.1 mb 0.00 in0.0 mm 0.00 in0.0 mm 0.00 in0.0 mm
04:51 AM 63.3°F17.4°C 25.9°F-3.4°C 24% 1.0 mph NNW1.6 kmh NNW 2.0 mph3.2 kmh 29.65 in1004.1 mb 0.00 in0.0 mm 0.00 in0.0 mm 0.00 in0.0 mm
04:50 AM 63.3°F17.4°C 25.9°F-3.4°C 24% 1.0 mph NNW1.6 kmh NNW 2.0 mph3.2 kmh 29.65 in1004.1 mb 0.00 in0.0 mm 0.00 in0.0 mm 0.00 in0.0 mm
04:49 AM 63.2°F17.3°C 25.8°F-3.4°C 24% 1.0 mph NNW1.6 kmh NNW 2.0 mph3.2 kmh 29.65 in1004.1 mb 0.00 in0.0 mm 0.00 in0.0 mm 0.00 in0.0 mm
04:48 AM 63.3°F17.4°C 25.9°F-3.4°C 24% Calm Calm 1.0 mph1.6 kmh 29.65 in1004.1 mb 0.00 in0.0 mm 0.00 in0.0 mm 0.00 in0.0 mm
04:47 AM 63.2°F17.3°C 25.8°F-3.4°C 24% Calm Calm 1.0 mph1.6 kmh 29.65 in1004.1 mb 0.00 in0.0 mm 0.00 in0.0 mm 0.00 in0.0 mm
04:46 AM 63.3°F17.4°C 25.9°F-3.4°C 24% 1.0 mph NNW1.6 kmh NNW 2.0 mph3.2 kmh 29.65 in1004.1 mb 0.00 in0.0 mm 0.00 in0.0 mm 0.00 in0.0 mm
04:45 AM 63.3°F17.4°C 25.9°F-3.4°C 24% 1.0 mph NNW1.6 kmh NNW 2.0 mph3.2 kmh 29.65 in1004.1 mb 0.00 in0.0 mm 0.00 in0.0 mm 0.00 in0.0 mm
04:44 AM 63.4°F17.4°C 26.0°F-3.3°C 24% 2.0 mph NNW3.2 kmh NNW 3.0 mph4.8 kmh 29.65 in1004.1 mb 0.00 in0.0 mm 0.00 in0.0 mm 0.00 in0.0 mm
04:43 AM 63.4°F17.4°C 26.0°F-3.3°C 24% 2.0 mph NNW3.2 kmh NNW 3.0 mph4.8 kmh 29.65 in1004.1 mb 0.00 in0.0 mm 0.00 in0.0 mm 0.00 in0.0 mm
04:42 AM 63.5°F17.5°C 26.1°F-3.3°C 24% 2.0 mph NNW3.2 kmh NNW 3.0 mph4.8 kmh 29.65 in1004.1 mb 0.00 in0.0 mm 0.00 in0.0 mm 0.00 in0.0 mm
04:41 AM 63.5°F17.5°C 26.1°F-3.3°C 24% 2.0 mph NNW3.2 kmh NNW 3.0 mph4.8 kmh 29.65 in1004.1 mb 0.00 in0.0 mm 0.00 in0.0 mm 0.00 in0.0 mm
04:40 AM 63.6°F17.6°C 26.2°F-3.2°C 24% 2.0 mph NNW3.2 kmh NNW 2.0 mph3.2 kmh 29.65 in1004.1 mb 0.00 in0.0 mm 0.00 in0.0 mm 0.00 in0.0 mm
04:39 AM 63.6°F17.6°C 26.2°F-3.2°C 24% 2.0 mph NNW3.2 kmh NNW 2.0 mph3.2 kmh 29.65 in1004.1 mb 0.00 in0.0 mm 0.00 in0.0 mm 0.00 in0.0 mm
04:38 AM 63.6°F17.6°C 26.2°F-3.2°C 24% 3.0 mph NW4.8 kmh NW 3.0 mph4.8 kmh 29.65 in1004.1 mb 0.00 in0.0 mm 0.00 in0.0 mm 0.00 in0.0 mm
04:37 AM 63.6°F17.6°C 26.2°F-3.2°C 24% 3.0 mph NW4.8 kmh NW 4.0 mph6.4 kmh 29.65 in1004.1 mb 0.00 in0.0 mm 0.00 in0.0 mm 0.00 in0.0 mm
04:36 AM 63.5°F17.5°C 26.1°F-3.3°C 24% 4.0 mph NNW6.4 kmh NNW 4.0 mph6.4 kmh 29.65 in1004.1 mb 0.00 in0.0 mm 0.00 in0.0 mm 0.00 in0.0 mm
04:35 AM 63.6°F17.6°C 26.2°F-3.2°C 24% 4.0 mph NNW6.4 kmh NNW 5.0 mph8.0 kmh 29.65 in1004.1 mb 0.00 in0.0 mm 0.00 in0.0 mm 0.00 in0.0 mm
04:34 AM 63.7°F17.6°C 26.2°F-3.2°C 24% 3.0 mph NNW4.8 kmh NNW 4.0 mph6.4 kmh 29.65 in1004.1 mb 0.00 in0.0 mm 0.00 in0.0 mm 0.00 in0.0 mm
04:33 AM 63.9°F17.7°C 26.4°F-3.1°C 24% 4.0 mph NNW6.4 kmh NNW 4.0 mph6.4 kmh 29.65 in1004.1 mb 0.00 in0.0 mm 0.00 in0.0 mm 0.00 in0.0 mm
04:32 AM 63.9°F17.7°C 26.4°F-3.1°C 24% 4.0 mph NNW6.4 kmh NNW 5.0 mph8.0 kmh 29.65 in1004.1 mb 0.00 in0.0 mm 0.00 in0.0 mm 0.00 in0.0 mm
04:31 AM 64.0°F17.8°C 25.5°F-3.6°C 23% 3.0 mph NNW4.8 kmh NNW 4.0 mph6.4 kmh 29.65 in1004.1 mb 0.00 in0.0 mm 0.00 in0.0 mm 0.00 in0.0 mm
04:30 AM 64.0°F17.8°C 26.5°F-3.1°C 24% 2.0 mph NNW3.2 kmh NNW 3.0 mph4.8 kmh 29.65 in1004.1 mb 0.00 in0.0 mm 0.00 in0.0 mm 0.00 in0.0 mm
04:29 AM 64.1°F17.8°C 25.5°F-3.6°C 23% 3.0 mph NNW4.8 kmh NNW 4.0 mph6.4 kmh 29.65 in1004.1 mb 0.00 in0.0 mm 0.00 in0.0 mm 0.00 in0.0 mm
04:28 AM 64.2°F17.9°C 25.6°F-3.6°C 23% 4.0 mph NNW6.4 kmh NNW 5.0 mph8.0 kmh 29.65 in1004.1 mb 0.00 in0.0 mm 0.00 in0.0 mm 0.00 in0.0 mm
04:27 AM 64.2°F17.9°C 25.6°F-3.6°C 23% 3.0 mph NNW4.8 kmh NNW 4.0 mph6.4 kmh 29.65 in1004.1 mb 0.00 in0.0 mm 0.00 in0.0 mm 0.00 in0.0 mm
04:26 AM 64.3°F17.9°C 25.7°F-3.5°C 23% 2.0 mph NNW3.2 kmh NNW 2.0 mph3.2 kmh 29.65 in1004.1 mb 0.00 in0.0 mm 0.00 in0.0 mm 0.00 in0.0 mm
04:25 AM 64.4°F18.0°C 25.8°F-3.4°C 23% 3.0 mph NNW4.8 kmh NNW 4.0 mph6.4 kmh 29.65 in1004.1 mb 0.00 in0.0 mm 0.00 in0.0 mm 0.00 in0.0 mm
04:24 AM 64.5°F18.1°C 25.9°F-3.4°C 23% 3.0 mph NNW4.8 kmh NNW 4.0 mph6.4 kmh 29.65 in1004.1 mb 0.00 in0.0 mm 0.00 in0.0 mm 0.00 in0.0 mm
04:23 AM 64.5°F18.1°C 25.9°F-3.4°C 23% 2.0 mph NNW3.2 kmh NNW 3.0 mph4.8 kmh 29.65 in1004.1 mb 0.00 in0.0 mm 0.00 in0.0 mm 0.00 in0.0 mm
04:22 AM 64.6°F18.1°C 26.0°F-3.3°C 23% 3.0 mph NNW4.8 kmh NNW 3.0 mph4.8 kmh 29.65 in1004.1 mb 0.00 in0.0 mm 0.00 in0.0 mm 0.00 in0.0 mm
04:21 AM 64.7°F18.2°C 26.1°F-3.3°C 23% 3.0 mph NNW4.8 kmh NNW 4.0 mph6.4 kmh 29.65 in1004.1 mb 0.00 in0.0 mm 0.00 in0.0 mm 0.00 in0.0 mm
04:20 AM 64.8°F18.2°C 26.1°F-3.3°C 23% 3.0 mph NNW4.8 kmh NNW 4.0 mph6.4 kmh 29.65 in1004.1 mb 0.00 in0.0 mm 0.00 in0.0 mm 0.00 in0.0 mm
04:19 AM 64.9°F18.3°C 26.2°F-3.2°C 23% 4.0 mph NNW6.4 kmh NNW 5.0 mph8.0 kmh 29.65 in1004.1 mb 0.00 in0.0 mm 0.00 in0.0 mm 0.00 in0.0 mm
04:18 AM 65.0°F18.3°C 25.2°F-3.8°C 22% 4.0 mph 6.4 kmh 6.0 mph9.7 kmh 29.65 in1004.1 mb 0.00 in0.0 mm 0.00 in0.0 mm 0.00 in0.0 mm
04:17 AM 64.9°F18.3°C 25.2°F-3.8°C 22% 5.0 mph 8.0 kmh 6.0 mph9.7 kmh 29.65 in1004.1 mb 0.00 in0.0 mm 0.00 in0.0 mm 0.00 in0.0 mm
04:16 AM 64.9°F18.3°C 25.2°F-3.8°C 22% 5.0 mph NNW8.0 kmh NNW 5.0 mph8.0 kmh 29.65 in1004.1 mb 0.00 in0.0 mm 0.00 in0.0 mm 0.00 in0.0 mm
04:15 AM 64.7°F18.2°C 26.1°F-3.3°C 23% 4.0 mph NNW6.4 kmh NNW 5.0 mph8.0 kmh 29.65 in1004.1 mb 0.00 in0.0 mm 0.00 in0.0 mm 0.00 in0.0 mm
04:14 AM 64.7°F18.2°C 25.0°F-3.9°C 22% 5.0 mph 8.0 kmh 5.0 mph8.0 kmh 29.64 in1003.7 mb 0.00 in0.0 mm 0.00 in0.0 mm 0.00 in0.0 mm
04:13 AM 64.6°F18.1°C 26.0°F-3.3°C 23% 4.0 mph 6.4 kmh 5.0 mph8.0 kmh 29.64 in1003.7 mb 0.00 in0.0 mm 0.00 in0.0 mm 0.00 in0.0 mm
04:12 AM 64.6°F18.1°C 26.0°F-3.3°C 23% 5.0 mph NNW8.0 kmh NNW 5.0 mph8.0 kmh 29.65 in1004.1 mb 0.00 in0.0 mm 0.00 in0.0 mm 0.00 in0.0 mm
04:11 AM 64.7°F18.2°C 26.1°F-3.3°C 23% 4.0 mph NNW6.4 kmh NNW 5.0 mph8.0 kmh 29.64 in1003.7 mb 0.00 in0.0 mm 0.00 in0.0 mm 0.00 in0.0 mm
04:10 AM 64.6°F18.1°C 26.0°F-3.3°C 23% 5.0 mph 8.0 kmh 6.0 mph9.7 kmh 29.64 in1003.7 mb 0.00 in0.0 mm 0.00 in0.0 mm 0.00 in0.0 mm
04:09 AM 64.6°F18.1°C 26.0°F-3.3°C 23% 4.0 mph NNW6.4 kmh NNW 5.0 mph8.0 kmh 29.64 in1003.7 mb 0.00 in0.0 mm 0.00 in0.0 mm 0.00 in0.0 mm
04:08 AM 64.7°F18.2°C 26.1°F-3.3°C 23% 4.0 mph NNW6.4 kmh NNW 5.0 mph8.0 kmh 29.64 in1003.7 mb 0.00 in0.0 mm 0.00 in0.0 mm 0.00 in0.0 mm
04:07 AM 64.7°F18.2°C 26.1°F-3.3°C 23% 5.0 mph NNW8.0 kmh NNW 6.0 mph9.7 kmh 29.64 in1003.7 mb 0.00 in0.0 mm 0.00 in0.0 mm 0.00 in0.0 mm
04:06 AM 64.6°F18.1°C 26.0°F-3.3°C 23% 5.0 mph NNW8.0 kmh NNW 6.0 mph9.7 kmh 29.64 in1003.7 mb 0.00 in0.0 mm 0.00 in0.0 mm 0.00 in0.0 mm
04:05 AM 64.6°F18.1°C 24.9°F-3.9°C 22% 4.0 mph NNW6.4 kmh NNW 5.0 mph8.0 kmh 29.64 in1003.7 mb 0.00 in0.0 mm 0.00 in0.0 mm 0.00 in0.0 mm
04:04 AM 64.6°F18.1°C 26.0°F-3.3°C 23% 4.0 mph NNW6.4 kmh NNW 4.0 mph6.4 kmh 29.64 in1003.7 mb 0.00 in0.0 mm 0.00 in0.0 mm 0.00 in0.0 mm
04:03 AM 64.5°F18.1°C 25.9°F-3.4°C 23% 4.0 mph 6.4 kmh 4.0 mph6.4 kmh 29.64 in1003.7 mb 0.00 in0.0 mm 0.00 in0.0 mm 0.00 in0.0 mm
04:02 AM 64.7°F18.2°C 26.1°F-3.3°C 23% 2.0 mph 3.2 kmh 3.0 mph4.8 kmh 29.64 in1003.7 mb 0.00 in0.0 mm 0.00 in0.0 mm 0.00 in0.0 mm
04:01 AM 64.7°F18.2°C 25.0°F-3.9°C 22% 3.0 mph 4.8 kmh 3.0 mph4.8 kmh 29.64 in1003.7 mb 0.00 in0.0 mm 0.00 in0.0 mm 0.00 in0.0 mm
04:00 AM 64.7°F18.2°C 26.1°F-3.3°C 23% 3.0 mph 4.8 kmh 4.0 mph6.4 kmh 29.64 in1003.7 mb 0.00 in0.0 mm 0.00 in0.0 mm 0.00 in0.0 mm
03:59 AM 64.7°F18.2°C 25.0°F-3.9°C 22% 3.0 mph 4.8 kmh 4.0 mph6.4 kmh 29.64 in1003.7 mb 0.00 in0.0 mm 0.00 in0.0 mm 0.00 in0.0 mm
03:58 AM 64.7°F18.2°C 25.0°F-3.9°C 22% 4.0 mph 6.4 kmh 4.0 mph6.4 kmh 29.64 in1003.7 mb 0.00 in0.0 mm 0.00 in0.0 mm 0.00 in0.0 mm
03:57 AM 64.7°F18.2°C 25.0°F-3.9°C 22% 3.0 mph NNW4.8 kmh NNW 4.0 mph6.4 kmh 29.64 in1003.7 mb 0.00 in0.0 mm 0.00 in0.0 mm 0.00 in0.0 mm
03:56 AM 64.8°F18.2°C 25.1°F-3.8°C 22% 3.0 mph NNW4.8 kmh NNW 4.0 mph6.4 kmh 29.64 in1003.7 mb 0.00 in0.0 mm 0.00 in0.0 mm 0.00 in0.0 mm
03:55 AM 64.9°F18.3°C 25.2°F-3.8°C 22% 4.0 mph NNW6.4 kmh NNW 5.0 mph8.0 kmh 29.64 in1003.7 mb 0.00 in0.0 mm 0.00 in0.0 mm 0.00 in0.0 mm
03:54 AM 64.9°F18.3°C 25.2°F-3.8°C 22% 4.0 mph NNW6.4 kmh NNW 5.0 mph8.0 kmh 29.64 in1003.7 mb 0.00 in0.0 mm 0.00 in0.0 mm 0.00 in0.0 mm
03:53 AM 64.7°F18.2°C 25.0°F-3.9°C 22% 4.0 mph NNW6.4 kmh NNW 5.0 mph8.0 kmh 29.64 in1003.7 mb 0.00 in0.0 mm 0.00 in0.0 mm 0.00 in0.0 mm
03:52 AM 64.7°F18.2°C 25.0°F-3.9°C 22% 4.0 mph NNW6.4 kmh NNW 5.0 mph8.0 kmh 29.64 in1003.7 mb 0.00 in0.0 mm 0.00 in0.0 mm 0.00 in0.0 mm
03:51 AM 64.7°F18.2°C 25.0°F-3.9°C 22% 2.0 mph NNW3.2 kmh NNW 3.0 mph4.8 kmh 29.64 in1003.7 mb 0.00 in0.0 mm 0.00 in0.0 mm 0.00 in0.0 mm
03:50 AM 64.4°F18.0°C 24.7°F-4.1°C 22% 3.0 mph NNW4.8 kmh NNW 3.0 mph4.8 kmh 29.64 in1003.7 mb 0.00 in0.0 mm 0.00 in0.0 mm 0.00 in0.0 mm
03:49 AM 64.4°F18.0°C 24.7°F-4.1°C 22% 3.0 mph 4.8 kmh 4.0 mph6.4 kmh 29.64 in1003.7 mb 0.00 in0.0 mm 0.00 in0.0 mm 0.00 in0.0 mm
03:48 AM 64.3°F17.9°C 24.6°F-4.1°C 22% 3.0 mph 4.8 kmh 4.0 mph6.4 kmh 29.64 in1003.7 mb 0.00 in0.0 mm 0.00 in0.0 mm 0.00 in0.0 mm
03:47 AM 64.3°F17.9°C 25.7°F-3.5°C 23% 4.0 mph NNW6.4 kmh NNW 5.0 mph8.0 kmh 29.64 in1003.7 mb 0.00 in0.0 mm 0.00 in0.0 mm 0.00 in0.0 mm
03:46 AM 64.3°F17.9°C 24.6°F-4.1°C 22% 3.0 mph NNW4.8 kmh NNW 4.0 mph6.4 kmh 29.64 in1003.7 mb 0.00 in0.0 mm 0.00 in0.0 mm 0.00 in0.0 mm
03:45 AM 64.3°F17.9°C 24.6°F-4.1°C 22% 3.0 mph NNW4.8 kmh NNW 4.0 mph6.4 kmh 29.64 in1003.7 mb 0.00 in0.0 mm 0.00 in0.0 mm 0.00 in0.0 mm
03:44 AM 64.2°F17.9°C 24.6°F-4.1°C 22% 4.0 mph NNW6.4 kmh NNW 5.0 mph8.0 kmh 29.64 in1003.7 mb 0.00 in0.0 mm 0.00 in0.0 mm 0.00 in0.0 mm
03:43 AM 64.3°F17.9°C 24.6°F-4.1°C 22% 5.0 mph NNW8.0 kmh NNW 5.0 mph8.0 kmh 29.64 in1003.7 mb 0.00 in0.0 mm 0.00 in0.0 mm 0.00 in0.0 mm
03:42 AM 64.4°F18.0°C 25.8°F-3.4°C 23% 4.0 mph 6.4 kmh 5.0 mph8.0 kmh 29.64 in1003.7 mb 0.00 in0.0 mm 0.00 in0.0 mm 0.00 in0.0 mm
03:41 AM 64.5°F18.1°C 24.8°F-4.0°C 22% 4.0 mph NNW6.4 kmh NNW 5.0 mph8.0 kmh 29.64 in1003.7 mb 0.00 in0.0 mm 0.00 in0.0 mm 0.00 in0.0 mm
03:40 AM 64.7°F18.2°C 25.0°F-3.9°C 22% 5.0 mph NNW8.0 kmh NNW 5.0 mph8.0 kmh 29.64 in1003.7 mb 0.00 in0.0 mm 0.00 in0.0 mm 0.00 in0.0 mm
03:39 AM 64.7°F18.2°C 25.0°F-3.9°C 22% 4.0 mph NNW6.4 kmh NNW 5.0 mph8.0 kmh 29.64 in1003.7 mb 0.00 in0.0 mm 0.00 in0.0 mm 0.00 in0.0 mm
03:38 AM 64.6°F18.1°C 24.9°F-3.9°C 22% 5.0 mph 8.0 kmh 5.0 mph8.0 kmh 29.64 in1003.7 mb 0.00 in0.0 mm 0.00 in0.0 mm 0.00 in0.0 mm
03:37 AM 64.6°F18.1°C 24.9°F-3.9°C 22% 4.0 mph NNW6.4 kmh NNW 5.0 mph8.0 kmh 29.64 in1003.7 mb 0.00 in0.0 mm 0.00 in0.0 mm 0.00 in0.0 mm
03:36 AM 64.6°F18.1°C 24.9°F-3.9°C 22% 4.0 mph 6.4 kmh 5.0 mph8.0 kmh 29.64 in1003.7 mb 0.00 in0.0 mm 0.00 in0.0 mm 0.00 in0.0 mm
03:35 AM 64.7°F18.2°C 25.0°F-3.9°C 22% 4.0 mph 6.4 kmh 4.0 mph6.4 kmh 29.64 in1003.7 mb 0.00 in0.0 mm 0.00 in0.0 mm 0.00 in0.0 mm
03:34 AM 64.7°F18.2°C 25.0°F-3.9°C 22% 3.0 mph 4.8 kmh 4.0 mph6.4 kmh 29.64 in1003.7 mb 0.00 in0.0 mm 0.00 in0.0 mm 0.00 in0.0 mm
03:33 AM 64.9°F18.3°C 25.2°F-3.8°C 22% 3.0 mph 4.8 kmh 4.0 mph6.4 kmh 29.64 in1003.7 mb 0.00 in0.0 mm 0.00 in0.0 mm 0.00 in0.0 mm
03:32 AM 64.9°F18.3°C 25.2°F-3.8°C 22% 2.0 mph 3.2 kmh 3.0 mph4.8 kmh 29.64 in1003.7 mb 0.00 in0.0 mm 0.00 in0.0 mm 0.00 in0.0 mm
03:31 AM 64.9°F18.3°C 25.2°F-3.8°C 22% 1.0 mph 1.6 kmh 2.0 mph3.2 kmh 29.64 in1003.7 mb 0.00 in0.0 mm 0.00 in0.0 mm 0.00 in0.0 mm
03:30 AM 64.9°F18.3°C 24.0°F-4.4°C 21% 1.0 mph 1.6 kmh 2.0 mph3.2 kmh 29.64 in1003.7 mb 0.00 in0.0 mm 0.00 in0.0 mm 0.00 in0.0 mm
03:29 AM 65.0°F18.3°C 25.2°F-3.8°C 22% 1.0 mph 1.6 kmh 1.0 mph1.6 kmh 29.64 in1003.7 mb 0.00 in0.0 mm 0.00 in0.0 mm 0.00 in0.0 mm
03:28 AM 65.0°F18.3°C 25.2°F-3.8°C 22% 1.0 mph 1.6 kmh 2.0 mph3.2 kmh 29.64 in1003.7 mb 0.00 in0.0 mm 0.00 in0.0 mm 0.00 in0.0 mm
03:27 AM 65.0°F18.3°C 24.1°F-4.4°C 21% 1.0 mph 1.6 kmh 2.0 mph3.2 kmh 29.64 in1003.7 mb 0.00 in0.0 mm 0.00 in0.0 mm 0.00 in0.0 mm
03:26 AM 65.0°F18.3°C 24.1°F-4.4°C 21% 1.0 mph 1.6 kmh 2.0 mph3.2 kmh 29.64 in1003.7 mb 0.00 in0.0 mm 0.00 in0.0 mm 0.00 in0.0 mm
03:25 AM 65.1°F18.4°C 25.3°F-3.7°C 22% 1.0 mph 1.6 kmh 2.0 mph3.2 kmh 29.64 in1003.7 mb 0.00 in0.0 mm 0.00 in0.0 mm 0.00 in0.0 mm
03:24 AM 65.1°F18.4°C 24.2°F-4.3°C 21% 3.0 mph 4.8 kmh 3.0 mph4.8 kmh 29.64 in1003.7 mb 0.00 in0.0 mm 0.00 in0.0 mm 0.00 in0.0 mm
03:23 AM 65.0°F18.3°C 24.1°F-4.4°C 21% 3.0 mph 4.8 kmh 4.0 mph6.4 kmh 29.64 in1003.7 mb 0.00 in0.0 mm 0.00 in0.0 mm 0.00 in0.0 mm
03:22 AM 65.1°F18.4°C 24.2°F-4.3°C 21% 4.0 mph 6.4 kmh 5.0 mph8.0 kmh 29.64 in1003.7 mb 0.00 in0.0 mm 0.00 in0.0 mm 0.00 in0.0 mm
03:21 AM 65.2°F18.4°C 24.3°F-4.3°C 21% 3.0 mph 4.8 kmh 4.0 mph6.4 kmh 29.64 in1003.7 mb 0.00 in0.0 mm 0.00 in0.0 mm 0.00 in0.0 mm
03:20 AM 65.3°F18.5°C 24.4°F-4.2°C 21% 2.0 mph 3.2 kmh 2.0 mph3.2 kmh 29.64 in1003.7 mb 0.00 in0.0 mm 0.00 in0.0 mm 0.00 in0.0 mm
03:19 AM 65.4°F18.6°C 24.5°F-4.2°C 21% 2.0 mph 3.2 kmh 2.0 mph3.2 kmh 29.64 in1003.7 mb 0.00 in0.0 mm 0.00 in0.0 mm 0.00 in0.0 mm
03:18 AM 65.4°F18.6°C 24.5°F-4.2°C 21% 2.0 mph 3.2 kmh 3.0 mph4.8 kmh 29.64 in1003.7 mb 0.00 in0.0 mm 0.00 in0.0 mm 0.00 in0.0 mm
03:17 AM 65.4°F18.6°C 24.5°F-4.2°C 21% 2.0 mph 3.2 kmh 3.0 mph4.8 kmh 29.64 in1003.7 mb 0.00 in0.0 mm 0.00 in0.0 mm 0.00 in0.0 mm
03:16 AM 65.4°F18.6°C 24.5°F-4.2°C 21% 4.0 mph 6.4 kmh 4.0 mph6.4 kmh 29.64 in1003.7 mb 0.00 in0.0 mm 0.00 in0.0 mm 0.00 in0.0 mm
03:15 AM 65.4°F18.6°C 24.5°F-4.2°C 21% 4.0 mph 6.4 kmh 5.0 mph8.0 kmh 29.64 in1003.7 mb 0.00 in0.0 mm 0.00 in0.0 mm 0.00 in0.0 mm
03:14 AM 65.4°F18.6°C 24.5°F-4.2°C 21% 5.0 mph 8.0 kmh 5.0 mph8.0 kmh 29.64 in1003.7 mb 0.00 in0.0 mm 0.00 in0.0 mm 0.00 in0.0 mm
03:13 AM 65.5°F18.6°C 24.5°F-4.2°C 21% 4.0 mph 6.4 kmh 4.0 mph6.4 kmh 29.64 in1003.7 mb 0.00 in0.0 mm 0.00 in0.0 mm 0.00 in0.0 mm
03:12 AM 65.5°F18.6°C 24.5°F-4.2°C 21% 4.0 mph 6.4 kmh 5.0 mph8.0 kmh 29.64 in1003.7 mb 0.00 in0.0 mm 0.00 in0.0 mm 0.00 in0.0 mm
03:11 AM 65.4°F18.6°C 24.5°F-4.2°C 21% 4.0 mph 6.4 kmh 5.0 mph8.0 kmh 29.64 in1003.7 mb 0.00 in0.0 mm 0.00 in0.0 mm 0.00 in0.0 mm
03:10 AM 65.4°F18.6°C 24.5°F-4.2°C 21% 4.0 mph NNW6.4 kmh NNW 5.0 mph8.0 kmh 29.64 in1003.7 mb 0.00 in0.0 mm 0.00 in0.0 mm 0.00 in0.0 mm
03:09 AM 65.4°F18.6°C 24.5°F-4.2°C 21% 4.0 mph NNW6.4 kmh NNW 5.0 mph8.0 kmh 29.64 in1003.7 mb 0.00 in0.0 mm 0.00 in0.0 mm 0.00 in0.0 mm
03:08 AM 65.4°F18.6°C 24.5°F-4.2°C 21% 3.0 mph 4.8 kmh 4.0 mph6.4 kmh 29.64 in1003.7 mb 0.00 in0.0 mm 0.00 in0.0 mm 0.00 in0.0 mm
03:07 AM 65.5°F18.6°C 24.5°F-4.2°C 21% 1.0 mph 1.6 kmh 2.0 mph3.2 kmh 29.64 in1003.7 mb 0.00 in0.0 mm 0.00 in0.0 mm 0.00 in0.0 mm
03:06 AM 65.4°F18.6°C 24.5°F-4.2°C 21% 2.0 mph 3.2 kmh 3.0 mph4.8 kmh 29.64 in1003.7 mb 0.00 in0.0 mm 0.00 in0.0 mm 0.00 in0.0 mm
03:05 AM 65.5°F18.6°C 24.5°F-4.2°C 21% 2.0 mph 3.2 kmh 3.0 mph4.8 kmh 29.64 in1003.7 mb 0.00 in0.0 mm 0.00 in0.0 mm 0.00 in0.0 mm
03:04 AM 65.4°F18.6°C 24.5°F-4.2°C 21% 3.0 mph 4.8 kmh 3.0 mph4.8 kmh 29.64 in1003.7 mb 0.00 in0.0 mm 0.00 in0.0 mm 0.00 in0.0 mm
03:03 AM 65.3°F18.5°C 24.4°F-4.2°C 21% 3.0 mph NNE4.8 kmh NNE 4.0 mph6.4 kmh 29.64 in1003.7 mb 0.00 in0.0 mm 0.00 in0.0 mm 0.00 in0.0 mm
03:02 AM 65.2°F18.4°C 24.3°F-4.3°C 21% 3.0 mph 4.8 kmh 3.0 mph4.8 kmh 29.64 in1003.7 mb 0.00 in0.0 mm 0.00 in0.0 mm 0.00 in0.0 mm
03:01 AM 65.2°F18.4°C 24.3°F-4.3°C 21% 3.0 mph NNE4.8 kmh NNE 4.0 mph6.4 kmh 29.64 in1003.7 mb 0.00 in0.0 mm 0.00 in0.0 mm 0.00 in0.0 mm
03:00 AM 65.0°F18.3°C 24.1°F-4.4°C 21% 4.0 mph NNW6.4 kmh NNW 5.0 mph8.0 kmh 29.64 in1003.7 mb 0.00 in0.0 mm 0.00 in0.0 mm 0.00 in0.0 mm
02:59 AM 65.0°F18.3°C 24.1°F-4.4°C 21% 4.0 mph NNW6.4 kmh NNW 5.0 mph8.0 kmh 29.64 in1003.7 mb 0.00 in0.0 mm 0.00 in0.0 mm 0.00 in0.0 mm
02:58 AM 65.0°F18.3°C 24.1°F-4.4°C 21% 4.0 mph NNW6.4 kmh NNW 5.0 mph8.0 kmh 29.64 in1003.7 mb 0.00 in0.0 mm 0.00 in0.0 mm 0.00 in0.0 mm
02:57 AM 65.0°F18.3°C 24.1°F-4.4°C 21% 4.0 mph NNW6.4 kmh NNW 5.0 mph8.0 kmh 29.64 in1003.7 mb 0.00 in0.0 mm 0.00 in0.0 mm 0.00 in0.0 mm
02:56 AM 65.2°F18.4°C 24.3°F-4.3°C 21% 4.0 mph NNW6.4 kmh NNW 5.0 mph8.0 kmh 29.64 in1003.7 mb 0.00 in0.0 mm 0.00 in0.0 mm 0.00 in0.0 mm
02:55 AM 65.2°F18.4°C 24.3°F-4.3°C 21% 5.0 mph NNW8.0 kmh NNW 6.0 mph9.7 kmh 29.64 in1003.7 mb 0.00 in0.0 mm 0.00 in0.0 mm 0.00 in0.0 mm
02:54 AM 65.3°F18.5°C 24.4°F-4.2°C 21% 5.0 mph 8.0 kmh 5.0 mph8.0 kmh 29.64 in1003.7 mb 0.00 in0.0 mm 0.00 in0.0 mm 0.00 in0.0 mm
02:53 AM 65.3°F18.5°C 24.4°F-4.2°C 21% 5.0 mph 8.0 kmh 5.0 mph8.0 kmh 29.64 in1003.7 mb 0.00 in0.0 mm 0.00 in0.0 mm 0.00 in0.0 mm
02:52 AM 65.2°F18.4°C 24.3°F-4.3°C 21% 4.0 mph NNW6.4 kmh NNW 5.0 mph8.0 kmh 29.64 in1003.7 mb 0.00 in0.0 mm 0.00 in0.0 mm 0.00 in0.0 mm
02:51 AM 65.2°F18.4°C 24.3°F-4.3°C 21% 3.0 mph NNW4.8 kmh NNW 4.0 mph6.4 kmh 29.64 in1003.7 mb 0.00 in0.0 mm 0.00 in0.0 mm 0.00 in0.0 mm
02:50 AM 65.3°F18.5°C 24.4°F-4.2°C 21% 3.0 mph NNW4.8 kmh NNW 4.0 mph6.4 kmh 29.64 in1003.7 mb 0.00 in0.0 mm 0.00 in0.0 mm 0.00 in0.0 mm
02:49 AM 65.5°F18.6°C 24.5°F-4.2°C 21% 3.0 mph NNW4.8 kmh NNW 3.0 mph4.8 kmh 29.64 in1003.7 mb 0.00 in0.0 mm 0.00 in0.0 mm 0.00 in0.0 mm
02:48 AM 65.6°F18.7°C 24.6°F-4.1°C 21% 3.0 mph NNW4.8 kmh NNW 3.0 mph4.8 kmh 29.64 in1003.7 mb 0.00 in0.0 mm 0.00 in0.0 mm 0.00 in0.0 mm
02:47 AM 65.7°F18.7°C 24.7°F-4.1°C 21% 3.0 mph NNW4.8 kmh NNW 4.0 mph6.4 kmh 29.64 in1003.7 mb 0.00 in0.0 mm 0.00 in0.0 mm 0.00 in0.0 mm
02:46 AM 65.8°F18.8°C 23.6°F-4.7°C 20% 4.0 mph NNW6.4 kmh NNW 5.0 mph8.0 kmh 29.64 in1003.7 mb 0.00 in0.0 mm 0.00 in0.0 mm 0.00 in0.0 mm
02:45 AM 65.8°F18.8°C 23.6°F-4.7°C 20% 3.0 mph 4.8 kmh 4.0 mph6.4 kmh 29.64 in1003.7 mb 0.00 in0.0 mm 0.00 in0.0 mm 0.00 in0.0 mm
02:44 AM 65.8°F18.8°C 24.8°F-4.0°C 21% 3.0 mph NNW4.8 kmh NNW 3.0 mph4.8 kmh 29.64 in1003.7 mb 0.00 in0.0 mm 0.00 in0.0 mm 0.00 in0.0 mm
02:43 AM 65.8°F18.8°C 23.6°F-4.7°C 20% 3.0 mph NNW4.8 kmh NNW 3.0 mph4.8 kmh 29.64 in1003.7 mb 0.00 in0.0 mm 0.00 in0.0 mm 0.00 in0.0 mm
02:42 AM 65.7°F18.7°C 23.5°F-4.7°C 20% 3.0 mph NNW4.8 kmh NNW 4.0 mph6.4 kmh 29.64 in1003.7 mb 0.00 in0.0 mm 0.00 in0.0 mm 0.00 in0.0 mm
02:41 AM 65.8°F18.8°C 23.6°F-4.7°C 20% 4.0 mph NNW6.4 kmh NNW 4.0 mph6.4 kmh 29.64 in1003.7 mb 0.00 in0.0 mm 0.00 in0.0 mm 0.00 in0.0 mm
02:40 AM 65.8°F18.8°C 24.8°F-4.0°C 21% 3.0 mph 4.8 kmh 4.0 mph6.4 kmh 29.64 in1003.7 mb 0.00 in0.0 mm 0.00 in0.0 mm 0.00 in0.0 mm
02:39 AM 65.8°F18.8°C 23.6°F-4.7°C 20% 3.0 mph 4.8 kmh 4.0 mph6.4 kmh 29.64 in1003.7 mb 0.00 in0.0 mm 0.00 in0.0 mm 0.00 in0.0 mm
02:38 AM 65.9°F18.8°C 23.7°F-4.6°C 20% 3.0 mph NNW4.8 kmh NNW 4.0 mph6.4 kmh 29.64 in1003.7 mb 0.00 in0.0 mm 0.00 in0.0 mm 0.00 in0.0 mm
02:37 AM 66.0°F18.9°C 23.8°F-4.6°C 20% 4.0 mph 6.4 kmh 5.0 mph8.0 kmh 29.64 in1003.7 mb 0.00 in0.0 mm 0.00 in0.0 mm 0.00 in0.0 mm
02:36 AM 66.3°F19.1°C 24.0°F-4.4°C 20% 5.0 mph NNW8.0 kmh NNW 6.0 mph9.7 kmh 29.64 in1003.7 mb 0.00 in0.0 mm 0.00 in0.0 mm 0.00 in0.0 mm
02:35 AM 66.4°F19.1°C 24.1°F-4.4°C 20% 3.0 mph 4.8 kmh 5.0 mph8.0 kmh 29.64 in1003.7 mb 0.00 in0.0 mm 0.00 in0.0 mm 0.00 in0.0 mm
02:34 AM 66.5°F19.2°C 24.2°F-4.3°C 20% 3.0 mph 4.8 kmh 3.0 mph4.8 kmh 29.64 in1003.7 mb 0.00 in0.0 mm 0.00 in0.0 mm 0.00 in0.0 mm
02:33 AM 66.6°F19.2°C 23.1°F-4.9°C 19% 3.0 mph NNW4.8 kmh NNW 4.0 mph6.4 kmh 29.64 in1003.7 mb 0.00 in0.0 mm 0.00 in0.0 mm 0.00 in0.0 mm
02:32 AM 66.8°F19.3°C 24.4°F-4.2°C 20% 4.0 mph NNW6.4 kmh NNW 5.0 mph8.0 kmh 29.64 in1003.7 mb 0.00 in0.0 mm 0.00 in0.0 mm 0.00 in0.0 mm
02:31 AM 66.9°F19.4°C 24.5°F-4.2°C 20% 4.0 mph 6.4 kmh 5.0 mph8.0 kmh 29.64 in1003.7 mb 0.00 in0.0 mm 0.00 in0.0 mm 0.00 in0.0 mm
02:30 AM 67.0°F19.4°C 24.6°F-4.1°C 20% 2.0 mph NNE3.2 kmh NNE 4.0 mph6.4 kmh 29.64 in1003.7 mb 0.00 in0.0 mm 0.00 in0.0 mm 0.00 in0.0 mm
02:29 AM 67.0°F19.4°C 23.4°F-4.8°C 19% 2.0 mph NNE3.2 kmh NNE 3.0 mph4.8 kmh 29.64 in1003.7 mb 0.00 in0.0 mm 0.00 in0.0 mm 0.00 in0.0 mm
02:28 AM 66.9°F19.4°C 23.3°F-4.8°C 19% 3.0 mph NNE4.8 kmh NNE 3.0 mph4.8 kmh 29.64 in1003.7 mb 0.00 in0.0 mm 0.00 in0.0 mm 0.00 in0.0 mm
02:27 AM 67.0°F19.4°C 23.4°F-4.8°C 19% 3.0 mph 4.8 kmh 4.0 mph6.4 kmh 29.64 in1003.7 mb 0.00 in0.0 mm 0.00 in0.0 mm 0.00 in0.0 mm
02:26 AM 67.1°F19.5°C 23.5°F-4.7°C 19% 5.0 mph 8.0 kmh 5.0 mph8.0 kmh 29.64 in1003.7 mb 0.00 in0.0 mm 0.00 in0.0 mm 0.00 in0.0 mm
02:25 AM 67.2°F19.6°C 23.6°F-4.7°C 19% 5.0 mph NNW8.0 kmh NNW 5.0 mph8.0 kmh 29.64 in1003.7 mb 0.00 in0.0 mm 0.00 in0.0 mm 0.00 in0.0 mm
02:24 AM 67.3°F19.6°C 23.6°F-4.7°C 19% 4.0 mph NNW6.4 kmh NNW 5.0 mph8.0 kmh 29.64 in1003.7 mb 0.00 in0.0 mm 0.00 in0.0 mm 0.00 in0.0 mm
02:23 AM 67.3°F19.6°C 23.6°F-4.7°C 19% 4.0 mph NNW6.4 kmh NNW 5.0 mph8.0 kmh 29.64 in1003.7 mb 0.00 in0.0 mm 0.00 in0.0 mm 0.00 in0.0 mm
02:22 AM 67.3°F19.6°C 23.6°F-4.7°C 19% 5.0 mph NNW8.0 kmh NNW 5.0 mph8.0 kmh 29.64 in1003.7 mb 0.00 in0.0 mm 0.00 in0.0 mm 0.00 in0.0 mm
02:21 AM 67.3°F19.6°C 23.6°F-4.7°C 19% 4.0 mph NNW6.4 kmh NNW 5.0 mph8.0 kmh 29.64 in1003.7 mb 0.00 in0.0 mm 0.00 in0.0 mm 0.00 in0.0 mm
02:20 AM 67.3°F19.6°C 23.6°F-4.7°C 19% 4.0 mph NNW6.4 kmh NNW 5.0 mph8.0 kmh 29.64 in1003.7 mb 0.00 in0.0 mm 0.00 in0.0 mm 0.00 in0.0 mm
02:19 AM 67.2°F19.6°C 23.6°F-4.7°C 19% 4.0 mph NNW6.4 kmh NNW 4.0 mph6.4 kmh 29.64 in1003.7 mb 0.00 in0.0 mm 0.00 in0.0 mm 0.00 in0.0 mm
02:18 AM 67.1°F19.5°C 23.5°F-4.7°C 19% 4.0 mph NNW6.4 kmh NNW 5.0 mph8.0 kmh 29.64 in1003.7 mb 0.00 in0.0 mm 0.00 in0.0 mm 0.00 in0.0 mm
02:17 AM 67.1°F19.5°C 23.5°F-4.7°C 19% 4.0 mph 6.4 kmh 5.0 mph8.0 kmh 29.63 in1003.4 mb 0.00 in0.0 mm 0.00 in0.0 mm 0.00 in0.0 mm
02:16 AM 67.1°F19.5°C 23.5°F-4.7°C 19% 4.0 mph NNW6.4 kmh NNW 5.0 mph8.0 kmh 29.64 in1003.7 mb 0.00 in0.0 mm 0.00 in0.0 mm 0.00 in0.0 mm
02:15 AM 67.1°F19.5°C 23.5°F-4.7°C 19% 3.0 mph NNW4.8 kmh NNW 4.0 mph6.4 kmh 29.64 in1003.7 mb 0.00 in0.0 mm 0.00 in0.0 mm 0.00 in0.0 mm
02:14 AM 67.1°F19.5°C 23.5°F-4.7°C 19% 2.0 mph NNW3.2 kmh NNW 3.0 mph4.8 kmh 29.64 in1003.7 mb 0.00 in0.0 mm 0.00 in0.0 mm 0.00 in0.0 mm
02:13 AM 67.2°F19.6°C 23.6°F-4.7°C 19% 2.0 mph NW3.2 kmh NW 3.0 mph4.8 kmh 29.64 in1003.7 mb 0.00 in0.0 mm 0.00 in0.0 mm 0.00 in0.0 mm
02:12 AM 67.2°F19.6°C 23.6°F-4.7°C 19% 3.0 mph NNW4.8 kmh NNW 3.0 mph4.8 kmh 29.64 in1003.7 mb 0.00 in0.0 mm 0.00 in0.0 mm 0.00 in0.0 mm
02:11 AM 67.4°F19.7°C 23.7°F-4.6°C 19% 3.0 mph NNW4.8 kmh NNW 3.0 mph4.8 kmh 29.64 in1003.7 mb 0.00 in0.0 mm 0.00 in0.0 mm 0.00 in0.0 mm
02:10 AM 67.4°F19.7°C 23.7°F-4.6°C 19% 3.0 mph NW4.8 kmh NW 3.0 mph4.8 kmh 29.63 in1003.4 mb 0.00 in0.0 mm 0.00 in0.0 mm 0.00 in0.0 mm
02:09 AM 67.6°F19.8°C 23.9°F-4.5°C 19% 2.0 mph NW3.2 kmh NW 2.0 mph3.2 kmh 29.64 in1003.7 mb 0.00 in0.0 mm 0.00 in0.0 mm 0.00 in0.0 mm
02:08 AM 67.6°F19.8°C 23.9°F-4.5°C 19% 2.0 mph NW3.2 kmh NW 3.0 mph4.8 kmh 29.64 in1003.7 mb 0.00 in0.0 mm 0.00 in0.0 mm 0.00 in0.0 mm
02:07 AM 67.7°F19.8°C 24.0°F-4.4°C 19% 3.0 mph NW4.8 kmh NW 3.0 mph4.8 kmh 29.64 in1003.7 mb 0.00 in0.0 mm 0.00 in0.0 mm 0.00 in0.0 mm
02:06 AM 67.8°F19.9°C 24.0°F-4.4°C 19% 2.0 mph NW3.2 kmh NW 3.0 mph4.8 kmh 29.64 in1003.7 mb 0.00 in0.0 mm 0.00 in0.0 mm 0.00 in0.0 mm
02:05 AM 67.8°F19.9°C 24.0°F-4.4°C 19% 3.0 mph NW4.8 kmh NW 4.0 mph6.4 kmh 29.63 in1003.4 mb 0.00 in0.0 mm 0.00 in0.0 mm 0.00 in0.0 mm
02:04 AM 67.8°F19.9°C 24.0°F-4.4°C 19% 3.0 mph NW4.8 kmh NW 4.0 mph6.4 kmh 29.63 in1003.4 mb 0.00 in0.0 mm 0.00 in0.0 mm 0.00 in0.0 mm
02:03 AM 67.9°F19.9°C 24.1°F-4.4°C 19% 3.0 mph NW4.8 kmh NW 3.0 mph4.8 kmh 29.63 in1003.4 mb 0.00 in0.0 mm 0.00 in0.0 mm 0.00 in0.0 mm
02:02 AM 68.0°F20.0°C 24.2°F-4.3°C 19% 2.0 mph NW3.2 kmh NW 3.0 mph4.8 kmh 29.63 in1003.4 mb 0.00 in0.0 mm 0.00 in0.0 mm 0.00 in0.0 mm
02:01 AM 68.1°F20.1°C 24.3°F-4.3°C 19% 3.0 mph NW4.8 kmh NW 4.0 mph6.4 kmh 29.63 in1003.4 mb 0.00 in0.0 mm 0.00 in0.0 mm 0.00 in0.0 mm
02:00 AM 68.2°F20.1°C 24.4°F-4.2°C 19% 3.0 mph NW4.8 kmh NW 4.0 mph6.4 kmh 29.63 in1003.4 mb 0.00 in0.0 mm 0.00 in0.0 mm 0.00 in0.0 mm
01:59 AM 68.3°F20.2°C 24.5°F-4.2°C 19% 3.0 mph NW4.8 kmh NW 3.0 mph4.8 kmh 29.63 in1003.4 mb 0.00 in0.0 mm 0.00 in0.0 mm 0.00 in0.0 mm
01:58 AM 68.4°F20.2°C 24.5°F-4.2°C 19% 2.0 mph WNW3.2 kmh WNW 3.0 mph4.8 kmh 29.64 in1003.7 mb 0.00 in0.0 mm 0.00 in0.0 mm 0.00 in0.0 mm
01:57 AM 68.4°F20.2°C 24.5°F-4.2°C 19% 2.0 mph NW3.2 kmh NW 3.0 mph4.8 kmh 29.63 in1003.4 mb 0.00 in0.0 mm 0.00 in0.0 mm 0.00 in0.0 mm
01:56 AM 68.4°F20.2°C 24.5°F-4.2°C 19% 3.0 mph NW4.8 kmh NW 4.0 mph6.4 kmh 29.63 in1003.4 mb 0.00 in0.0 mm 0.00 in0.0 mm 0.00 in0.0 mm
01:55 AM 68.5°F20.3°C 24.6°F-4.1°C 19% 3.0 mph NW4.8 kmh NW 4.0 mph6.4 kmh 29.63 in1003.4 mb 0.00 in0.0 mm 0.00 in0.0 mm 0.00 in0.0 mm
01:54 AM 68.5°F20.3°C 23.3°F-4.8°C 18% 2.0 mph NW3.2 kmh NW 3.0 mph4.8 kmh 29.63 in1003.4 mb 0.00 in0.0 mm 0.00 in0.0 mm 0.00 in0.0 mm
01:53 AM 68.5°F20.3°C 23.3°F-4.8°C 18% 3.0 mph NW4.8 kmh NW 4.0 mph6.4 kmh 29.63 in1003.4 mb 0.00 in0.0 mm 0.00 in0.0 mm 0.00 in0.0 mm
01:52 AM 68.4°F20.2°C 23.2°F-4.9°C 18% 4.0 mph WNW6.4 kmh WNW 6.0 mph9.7 kmh 29.64 in1003.7 mb 0.00 in0.0 mm 0.00 in0.0 mm 0.00 in0.0 mm
01:51 AM 68.3°F20.2°C 24.5°F-4.2°C 19% 4.0 mph WNW6.4 kmh WNW 4.0 mph6.4 kmh 29.64 in1003.7 mb 0.00 in0.0 mm 0.00 in0.0 mm 0.00 in0.0 mm
01:50 AM 68.2°F20.1°C 24.4°F-4.2°C 19% 4.0 mph WNW6.4 kmh WNW 6.0 mph9.7 kmh 29.64 in1003.7 mb 0.00 in0.0 mm 0.00 in0.0 mm 0.00 in0.0 mm
01:49 AM 68.1°F20.1°C 24.3°F-4.3°C 19% 5.0 mph WNW8.0 kmh WNW 7.0 mph11.3 kmh 29.64 in1003.7 mb 0.00 in0.0 mm 0.00 in0.0 mm 0.00 in0.0 mm
01:48 AM 67.9°F19.9°C 24.1°F-4.4°C 19% 5.0 mph WNW8.0 kmh WNW 7.0 mph11.3 kmh 29.64 in1003.7 mb 0.00 in0.0 mm 0.00 in0.0 mm 0.00 in0.0 mm
01:47 AM 67.8°F19.9°C 24.0°F-4.4°C 19% 6.0 mph WNW9.7 kmh WNW 8.0 mph12.9 kmh 29.64 in1003.7 mb 0.00 in0.0 mm 0.00 in0.0 mm 0.00 in0.0 mm
01:46 AM 67.6°F19.8°C 23.9°F-4.5°C 19% 5.0 mph WNW8.0 kmh WNW 7.0 mph11.3 kmh 29.64 in1003.7 mb 0.00 in0.0 mm 0.00 in0.0 mm 0.00 in0.0 mm
01:45 AM 67.4°F19.7°C 23.7°F-4.6°C 19% 5.0 mph WNW8.0 kmh WNW 6.0 mph9.7 kmh 29.64 in1003.7 mb 0.00 in0.0 mm 0.00 in0.0 mm 0.00 in0.0 mm
01:44 AM 67.2°F19.6°C 23.6°F-4.7°C 19% 4.0 mph WNW6.4 kmh WNW 6.0 mph9.7 kmh 29.64 in1003.7 mb 0.00 in0.0 mm 0.00 in0.0 mm 0.00 in0.0 mm
01:43 AM 67.0°F19.4°C 24.6°F-4.1°C 20% 3.0 mph WNW4.8 kmh WNW 4.0 mph6.4 kmh 29.64 in1003.7 mb 0.00 in0.0 mm 0.00 in0.0 mm 0.00 in0.0 mm
01:42 AM 66.9°F19.4°C 24.5°F-4.2°C 20% 3.0 mph WNW4.8 kmh WNW 3.0 mph4.8 kmh 29.64 in1003.7 mb 0.00 in0.0 mm 0.00 in0.0 mm 0.00 in0.0 mm
01:41 AM 66.7°F19.3°C 24.4°F-4.2°C 20% 3.0 mph WNW4.8 kmh WNW 4.0 mph6.4 kmh 29.64 in1003.7 mb 0.00 in0.0 mm 0.00 in0.0 mm 0.00 in0.0 mm
01:40 AM 66.6°F19.2°C 24.3°F-4.3°C 20% 3.0 mph WNW4.8 kmh WNW 3.0 mph4.8 kmh 29.64 in1003.7 mb 0.00 in0.0 mm 0.00 in0.0 mm 0.00 in0.0 mm
01:39 AM 66.5°F19.2°C 24.2°F-4.3°C 20% 3.0 mph NW4.8 kmh NW 3.0 mph4.8 kmh 29.63 in1003.4 mb 0.00 in0.0 mm 0.00 in0.0 mm 0.00 in0.0 mm
01:38 AM 66.5°F19.2°C 24.2°F-4.3°C 20% 2.0 mph NW3.2 kmh NW 3.0 mph4.8 kmh 29.63 in1003.4 mb 0.00 in0.0 mm 0.00 in0.0 mm 0.00 in0.0 mm
01:37 AM 66.7°F19.3°C 24.4°F-4.2°C 20% 3.0 mph NW4.8 kmh NW 3.0 mph4.8 kmh 29.63 in1003.4 mb 0.00 in0.0 mm 0.00 in0.0 mm 0.00 in0.0 mm
01:36 AM 66.9°F19.4°C 24.5°F-4.2°C 20% 4.0 mph NW6.4 kmh NW 4.0 mph6.4 kmh 29.63 in1003.4 mb 0.00 in0.0 mm 0.00 in0.0 mm 0.00 in0.0 mm
01:35 AM 67.1°F19.5°C 24.7°F-4.1°C 20% 4.0 mph NNW6.4 kmh NNW 5.0 mph8.0 kmh 29.64 in1003.7 mb 0.00 in0.0 mm 0.00 in0.0 mm 0.00 in0.0 mm
01:34 AM 67.5°F19.7°C 25.0°F-3.9°C 20% 4.0 mph NNW6.4 kmh NNW 5.0 mph8.0 kmh 29.63 in1003.4 mb 0.00 in0.0 mm 0.00 in0.0 mm 0.00 in0.0 mm
01:33 AM 67.8°F19.9°C 25.3°F-3.7°C 20% 4.0 mph NNW6.4 kmh NNW 5.0 mph8.0 kmh 29.63 in1003.4 mb 0.00 in0.0 mm 0.00 in0.0 mm 0.00 in0.0 mm
01:32 AM 68.1°F20.1°C 25.5°F-3.6°C 20% 3.0 mph NNW4.8 kmh NNW 5.0 mph8.0 kmh 29.63 in1003.4 mb 0.00 in0.0 mm 0.00 in0.0 mm 0.00 in0.0 mm
01:31 AM 68.4°F20.2°C 25.8°F-3.4°C 20% 3.0 mph NNW4.8 kmh NNW 3.0 mph4.8 kmh 29.63 in1003.4 mb 0.00 in0.0 mm 0.00 in0.0 mm 0.00 in0.0 mm
01:30 AM 68.7°F20.4°C 24.8°F-4.0°C 19% 3.0 mph NNW4.8 kmh NNW 4.0 mph6.4 kmh 29.64 in1003.7 mb 0.00 in0.0 mm 0.00 in0.0 mm 0.00 in0.0 mm
01:29 AM 68.9°F20.5°C 23.7°F-4.6°C 18% 5.0 mph NNW8.0 kmh NNW 6.0 mph9.7 kmh 29.63 in1003.4 mb 0.00 in0.0 mm 0.00 in0.0 mm 0.00 in0.0 mm
01:28 AM 69.1°F20.6°C 23.8°F-4.6°C 18% 5.0 mph 8.0 kmh 6.0 mph9.7 kmh 29.63 in1003.4 mb 0.00 in0.0 mm 0.00 in0.0 mm 0.00 in0.0 mm
01:27 AM 69.4°F20.8°C 24.1°F-4.4°C 18% 3.0 mph 4.8 kmh 4.0 mph6.4 kmh 29.63 in1003.4 mb 0.00 in0.0 mm 0.00 in0.0 mm 0.00 in0.0 mm
01:26 AM 69.7°F20.9°C 24.3°F-4.3°C 18% 3.0 mph 4.8 kmh 4.0 mph6.4 kmh 29.63 in1003.4 mb 0.00 in0.0 mm 0.00 in0.0 mm 0.00 in0.0 mm
01:25 AM 69.9°F21.1°C 24.5°F-4.2°C 18% 4.0 mph NNW6.4 kmh NNW 6.0 mph9.7 kmh 29.63 in1003.4 mb 0.00 in0.0 mm 0.00 in0.0 mm 0.00 in0.0 mm
01:24 AM 70.2°F21.2°C 23.3°F-4.8°C 17% 3.0 mph NE4.8 kmh NE 5.0 mph8.0 kmh 29.63 in1003.4 mb 0.00 in0.0 mm 0.00 in0.0 mm 0.00 in0.0 mm
01:23 AM 70.2°F21.2°C 21.9°F-5.6°C 16% 2.0 mph E3.2 kmh E 4.0 mph6.4 kmh 29.63 in1003.4 mb 0.00 in0.0 mm 0.00 in0.0 mm 0.00 in0.0 mm
01:22 AM 70.2°F21.2°C 21.9°F-5.6°C 16% 2.0 mph ESE3.2 kmh ESE 3.0 mph4.8 kmh 29.63 in1003.4 mb 0.00 in0.0 mm 0.00 in0.0 mm 0.00 in0.0 mm
01:21 AM 70.2°F21.2°C 23.3°F-4.8°C 17% 3.0 mph NE4.8 kmh NE 4.0 mph6.4 kmh 29.64 in1003.7 mb 0.00 in0.0 mm 0.00 in0.0 mm 0.00 in0.0 mm
01:20 AM 70.4°F21.3°C 23.5°F-4.7°C 17% 3.0 mph NNW4.8 kmh NNW 3.0 mph4.8 kmh 29.63 in1003.4 mb 0.00 in0.0 mm 0.00 in0.0 mm 0.00 in0.0 mm
01:19 AM 70.5°F21.4°C 23.6°F-4.7°C 17% 2.0 mph NNW3.2 kmh NNW 3.0 mph4.8 kmh 29.63 in1003.4 mb 0.00 in0.0 mm 0.00 in0.0 mm 0.00 in0.0 mm
01:18 AM 70.6°F21.4°C 23.7°F-4.6°C 17% 2.0 mph NNW3.2 kmh NNW 3.0 mph4.8 kmh 29.63 in1003.4 mb 0.00 in0.0 mm 0.00 in0.0 mm 0.00 in0.0 mm
01:17 AM 70.7°F21.5°C 22.3°F-5.4°C 16% 1.0 mph SSE1.6 kmh SSE 3.0 mph4.8 kmh 29.63 in1003.4 mb 0.00 in0.0 mm 0.00 in0.0 mm 0.00 in0.0 mm
01:16 AM 70.8°F21.6°C 22.4°F-5.3°C 16% 1.0 mph SSE1.6 kmh SSE 2.0 mph3.2 kmh 29.63 in1003.4 mb 0.00 in0.0 mm 0.00 in0.0 mm 0.00 in0.0 mm
01:15 AM 70.8°F21.6°C 22.4°F-5.3°C 16% 3.0 mph WSW4.8 kmh WSW 4.0 mph6.4 kmh 29.63 in1003.4 mb 0.00 in0.0 mm 0.00 in0.0 mm 0.00 in0.0 mm
01:14 AM 70.8°F21.6°C 22.4°F-5.3°C 16% 2.0 mph NNW3.2 kmh NNW 4.0 mph6.4 kmh 29.63 in1003.4 mb 0.00 in0.0 mm 0.00 in0.0 mm 0.00 in0.0 mm
01:13 AM 70.9°F21.6°C 22.5°F-5.3°C 16% 4.0 mph WNW6.4 kmh WNW 7.0 mph11.3 kmh 29.63 in1003.4 mb 0.00 in0.0 mm 0.00 in0.0 mm 0.00 in0.0 mm
01:12 AM 70.9°F21.6°C 22.5°F-5.3°C 16% 3.0 mph WNW4.8 kmh WNW 6.0 mph9.7 kmh 29.63 in1003.4 mb 0.00 in0.0 mm 0.00 in0.0 mm 0.00 in0.0 mm
01:11 AM 70.9°F21.6°C 22.5°F-5.3°C 16% 3.0 mph NW4.8 kmh NW 6.0 mph9.7 kmh 29.63 in1003.4 mb 0.00 in0.0 mm 0.00 in0.0 mm 0.00 in0.0 mm
01:10 AM 70.9°F21.6°C 22.5°F-5.3°C 16% 6.0 mph W9.7 kmh W 8.0 mph12.9 kmh 29.63 in1003.4 mb 0.00 in0.0 mm 0.00 in0.0 mm 0.00 in0.0 mm
01:09 AM 70.9°F21.6°C 22.5°F-5.3°C 16% 6.0 mph W9.7 kmh W 8.0 mph12.9 kmh 29.63 in1003.4 mb 0.00 in0.0 mm 0.00 in0.0 mm 0.00 in0.0 mm
01:08 AM 71.0°F21.7°C 22.6°F-5.2°C 16% 5.0 mph WNW8.0 kmh WNW 7.0 mph11.3 kmh 29.63 in1003.4 mb 0.00 in0.0 mm 0.00 in0.0 mm 0.00 in0.0 mm
01:07 AM 71.0°F21.7°C 22.6°F-5.2°C 16% 8.0 mph WNW12.9 kmh WNW 11.0 mph17.7 kmh 29.63 in1003.4 mb 0.00 in0.0 mm 0.00 in0.0 mm 0.00 in0.0 mm
01:06 AM 71.0°F21.7°C 22.6°F-5.2°C 16% 7.0 mph W11.3 kmh W 10.0 mph16.1 kmh 29.63 in1003.4 mb 0.00 in0.0 mm 0.00 in0.0 mm 0.00 in0.0 mm
01:05 AM 71.0°F21.7°C 22.6°F-5.2°C 16% 6.0 mph WNW9.7 kmh WNW 9.0 mph14.5 kmh 29.63 in1003.4 mb 0.00 in0.0 mm 0.00 in0.0 mm 0.00 in0.0 mm
01:04 AM 71.0°F21.7°C 22.6°F-5.2°C 16% 5.0 mph WNW8.0 kmh WNW 13.0 mph20.9 kmh 29.63 in1003.4 mb 0.00 in0.0 mm 0.00 in0.0 mm 0.00 in0.0 mm
01:03 AM 71.1°F21.7°C 22.6°F-5.2°C 16% 7.0 mph W11.3 kmh W 10.0 mph16.1 kmh 29.63 in1003.4 mb 0.00 in0.0 mm 0.00 in0.0 mm 0.00 in0.0 mm
01:02 AM 71.1°F21.7°C 22.6°F-5.2°C 16% 7.0 mph W11.3 kmh W 9.0 mph14.5 kmh 29.63 in1003.4 mb 0.00 in0.0 mm 0.00 in0.0 mm 0.00 in0.0 mm
01:01 AM 71.2°F21.8°C 22.7°F-5.2°C 16% 6.0 mph W9.7 kmh W 9.0 mph14.5 kmh 29.63 in1003.4 mb 0.00 in0.0 mm 0.00 in0.0 mm 0.00 in0.0 mm
01:00 AM 71.2°F21.8°C 22.7°F-5.2°C 16% 6.0 mph W9.7 kmh W 9.0 mph14.5 kmh 29.63 in1003.4 mb 0.00 in0.0 mm 0.00 in0.0 mm 0.00 in0.0 mm
12:59 AM 71.3°F21.8°C 22.8°F-5.1°C 16% 6.0 mph WNW9.7 kmh WNW 9.0 mph14.5 kmh 29.63 in1003.4 mb 0.00 in0.0 mm 0.00 in0.0 mm 0.00 in0.0 mm
12:58 AM 71.4°F21.9°C 22.9°F-5.1°C 16% 6.0 mph NW9.7 kmh NW 10.0 mph16.1 kmh 29.63 in1003.4 mb 0.00 in0.0 mm 0.00 in0.0 mm 0.00 in0.0 mm
12:57 AM 71.5°F21.9°C 23.0°F-5.0°C 16% 7.0 mph W11.3 kmh W 9.0 mph14.5 kmh 29.63 in1003.4 mb 0.00 in0.0 mm 0.00 in0.0 mm 0.00 in0.0 mm
12:56 AM 71.7°F22.1°C 23.1°F-4.9°C 16% 9.0 mph W14.5 kmh W 14.0 mph22.5 kmh 29.63 in1003.4 mb 0.00 in0.0 mm 0.00 in0.0 mm 0.00 in0.0 mm
12:55 AM 71.8°F22.1°C 23.2°F-4.9°C 16% 11.0 mph WSW17.7 kmh WSW 14.0 mph22.5 kmh 29.63 in1003.4 mb 0.00 in0.0 mm 0.00 in0.0 mm 0.00 in0.0 mm
12:54 AM 71.8°F22.1°C 21.7°F-5.7°C 15% 7.0 mph WSW11.3 kmh WSW 10.0 mph16.1 kmh 29.63 in1003.4 mb 0.00 in0.0 mm 0.00 in0.0 mm 0.00 in0.0 mm
12:53 AM 71.7°F22.1°C 21.6°F-5.8°C 15% 8.0 mph WSW12.9 kmh WSW 10.0 mph16.1 kmh 29.63 in1003.4 mb 0.00 in0.0 mm 0.00 in0.0 mm 0.00 in0.0 mm
12:52 AM 71.6°F22.0°C 21.5°F-5.8°C 15% 9.0 mph WSW14.5 kmh WSW 12.0 mph19.3 kmh 29.63 in1003.4 mb 0.00 in0.0 mm 0.00 in0.0 mm 0.00 in0.0 mm
12:51 AM 71.6°F22.0°C 23.0°F-5.0°C 16% 7.0 mph WSW11.3 kmh WSW 10.0 mph16.1 kmh 29.63 in1003.4 mb 0.00 in0.0 mm 0.00 in0.0 mm 0.00 in0.0 mm
12:50 AM 71.7°F22.1°C 23.1°F-4.9°C 16% 4.0 mph W6.4 kmh W 7.0 mph11.3 kmh 29.63 in1003.4 mb 0.00 in0.0 mm 0.00 in0.0 mm 0.00 in0.0 mm
12:49 AM 71.8°F22.1°C 21.7°F-5.7°C 15% 4.0 mph W6.4 kmh W 7.0 mph11.3 kmh 29.63 in1003.4 mb 0.00 in0.0 mm 0.00 in0.0 mm 0.00 in0.0 mm
12:48 AM 72.0°F22.2°C 21.8°F-5.7°C 15% 3.0 mph WSW4.8 kmh WSW 4.0 mph6.4 kmh 29.63 in1003.4 mb 0.00 in0.0 mm 0.00 in0.0 mm 0.00 in0.0 mm
12:47 AM 72.1°F22.3°C 21.9°F-5.6°C 15% 3.0 mph WSW4.8 kmh WSW 4.0 mph6.4 kmh 29.63 in1003.4 mb 0.00 in0.0 mm 0.00 in0.0 mm 0.00 in0.0 mm
12:46 AM 72.2°F22.3°C 22.0°F-5.6°C 15% 4.0 mph W6.4 kmh W 6.0 mph9.7 kmh 29.63 in1003.4 mb 0.00 in0.0 mm 0.00 in0.0 mm 0.00 in0.0 mm
12:45 AM 72.3°F22.4°C 22.1°F-5.5°C 15% 4.0 mph W6.4 kmh W 6.0 mph9.7 kmh 29.63 in1003.4 mb 0.00 in0.0 mm 0.00 in0.0 mm 0.00 in0.0 mm
12:44 AM 72.4°F22.4°C 22.1°F-5.5°C 15% 4.0 mph WSW6.4 kmh WSW 6.0 mph9.7 kmh 29.63 in1003.4 mb 0.00 in0.0 mm 0.00 in0.0 mm 0.00 in0.0 mm
12:43 AM 72.5°F22.5°C 22.2°F-5.4°C 15% 4.0 mph WSW6.4 kmh WSW 9.0 mph14.5 kmh 29.63 in1003.4 mb 0.00 in0.0 mm 0.00 in0.0 mm 0.00 in0.0 mm
12:42 AM 72.6°F22.6°C 22.3°F-5.4°C 15% 3.0 mph WSW4.8 kmh WSW 4.0 mph6.4 kmh 29.63 in1003.4 mb 0.00 in0.0 mm 0.00 in0.0 mm 0.00 in0.0 mm
12:41 AM 72.7°F22.6°C 22.4°F-5.3°C 15% 4.0 mph SW6.4 kmh SW 7.0 mph11.3 kmh 29.63 in1003.4 mb 0.00 in0.0 mm 0.00 in0.0 mm 0.00 in0.0 mm
12:40 AM 72.8°F22.7°C 22.5°F-5.3°C 15% 6.0 mph SW9.7 kmh SW 8.0 mph12.9 kmh 29.63 in1003.4 mb 0.00 in0.0 mm 0.00 in0.0 mm 0.00 in0.0 mm
12:39 AM 72.8°F22.7°C 20.8°F-6.2°C 14% 6.0 mph WSW9.7 kmh WSW 9.0 mph14.5 kmh 29.63 in1003.4 mb 0.00 in0.0 mm 0.00 in0.0 mm 0.00 in0.0 mm
12:38 AM 73.0°F22.8°C 21.0°F-6.1°C 14% 5.0 mph SW8.0 kmh SW 7.0 mph11.3 kmh 29.63 in1003.4 mb 0.00 in0.0 mm 0.00 in0.0 mm 0.00 in0.0 mm
12:37 AM 73.0°F22.8°C 21.0°F-6.1°C 14% 6.0 mph SW9.7 kmh SW 8.0 mph12.9 kmh 29.63 in1003.4 mb 0.00 in0.0 mm 0.00 in0.0 mm 0.00 in0.0 mm
12:36 AM 73.1°F22.8°C 21.1°F-6.1°C 14% 6.0 mph SW9.7 kmh SW 9.0 mph14.5 kmh 29.63 in1003.4 mb 0.00 in0.0 mm 0.00 in0.0 mm 0.00 in0.0 mm
12:35 AM 73.1°F22.8°C 21.1°F-6.1°C 14% 6.0 mph SW9.7 kmh SW 8.0 mph12.9 kmh 29.63 in1003.4 mb 0.00 in0.0 mm 0.00 in0.0 mm 0.00 in0.0 mm
12:34 AM 73.1°F22.8°C 21.1°F-6.1°C 14% 5.0 mph WSW8.0 kmh WSW 7.0 mph11.3 kmh 29.63 in1003.4 mb 0.00 in0.0 mm 0.00 in0.0 mm 0.00 in0.0 mm
12:33 AM 73.1°F22.8°C 21.1°F-6.1°C 14% 7.0 mph SW11.3 kmh SW 12.0 mph19.3 kmh 29.63 in1003.4 mb 0.00 in0.0 mm 0.00 in0.0 mm 0.00 in0.0 mm
12:32 AM 73.1°F22.8°C 21.1°F-6.1°C 14% 6.0 mph WSW9.7 kmh WSW 8.0 mph12.9 kmh 29.63 in1003.4 mb 0.00 in0.0 mm 0.00 in0.0 mm 0.00 in0.0 mm
12:31 AM 73.1°F22.8°C 21.1°F-6.1°C 14% 7.0 mph SW11.3 kmh SW 11.0 mph17.7 kmh 29.63 in1003.4 mb 0.00 in0.0 mm 0.00 in0.0 mm 0.00 in0.0 mm
12:30 AM 73.1°F22.8°C 21.1°F-6.1°C 14% 7.0 mph SW11.3 kmh SW 12.0 mph19.3 kmh 29.63 in1003.4 mb 0.00 in0.0 mm 0.00 in0.0 mm 0.00 in0.0 mm
12:29 AM 73.1°F22.8°C 21.1°F-6.1°C 14% 5.0 mph SW8.0 kmh SW 10.0 mph16.1 kmh 29.63 in1003.4 mb 0.00 in0.0 mm 0.00 in0.0 mm 0.00 in0.0 mm
12:28 AM 73.1°F22.8°C 21.1°F-6.1°C 14% 6.0 mph WSW9.7 kmh WSW 10.0 mph16.1 kmh 29.63 in1003.4 mb 0.00 in0.0 mm 0.00 in0.0 mm 0.00 in0.0 mm
12:27 AM 73.1°F22.8°C 21.1°F-6.1°C 14% 6.0 mph SW9.7 kmh SW 8.0 mph12.9 kmh 29.63 in1003.4 mb 0.00 in0.0 mm 0.00 in0.0 mm 0.00 in0.0 mm
12:26 AM 73.1°F22.8°C 21.1°F-6.1°C 14% 7.0 mph SW11.3 kmh SW 11.0 mph17.7 kmh 29.63 in1003.4 mb 0.00 in0.0 mm 0.00 in0.0 mm 0.00 in0.0 mm
12:25 AM 73.1°F22.8°C 21.1°F-6.1°C 14% 7.0 mph SW11.3 kmh SW 12.0 mph19.3 kmh 29.63 in1003.4 mb 0.00 in0.0 mm 0.00 in0.0 mm 0.00 in0.0 mm
12:24 AM 73.2°F22.9°C 22.8°F-5.1°C 15% 5.0 mph WSW8.0 kmh WSW 10.0 mph16.1 kmh 29.63 in1003.4 mb 0.00 in0.0 mm 0.00 in0.0 mm 0.00 in0.0 mm
12:23 AM 73.3°F22.9°C 21.2°F-6.0°C 14% 4.0 mph SW6.4 kmh SW 7.0 mph11.3 kmh 29.63 in1003.4 mb 0.00 in0.0 mm 0.00 in0.0 mm 0.00 in0.0 mm
12:22 AM 73.4°F23.0°C 21.3°F-5.9°C 14% 4.0 mph SW6.4 kmh SW 7.0 mph11.3 kmh 29.64 in1003.7 mb 0.00 in0.0 mm 0.00 in0.0 mm 0.00 in0.0 mm
12:21 AM 73.5°F23.1°C 21.4°F-5.9°C 14% 4.0 mph SW6.4 kmh SW 6.0 mph9.7 kmh 29.64 in1003.7 mb 0.00 in0.0 mm 0.00 in0.0 mm 0.00 in0.0 mm
12:20 AM 73.7°F23.2°C 21.5°F-5.8°C 14% 4.0 mph WSW6.4 kmh WSW 6.0 mph9.7 kmh 29.64 in1003.7 mb 0.00 in0.0 mm 0.00 in0.0 mm 0.00 in0.0 mm
12:19 AM 73.7°F23.2°C 21.5°F-5.8°C 14% 5.0 mph W8.0 kmh W 7.0 mph11.3 kmh 29.64 in1003.7 mb 0.00 in0.0 mm 0.00 in0.0 mm 0.00 in0.0 mm
12:18 AM 73.8°F23.2°C 21.6°F-5.8°C 14% 5.0 mph WSW8.0 kmh WSW 9.0 mph14.5 kmh 29.64 in1003.7 mb 0.00 in0.0 mm 0.00 in0.0 mm 0.00 in0.0 mm
12:17 AM 73.9°F23.3°C 21.7°F-5.7°C 14% 6.0 mph WSW9.7 kmh WSW 8.0 mph12.9 kmh 29.64 in1003.7 mb 0.00 in0.0 mm 0.00 in0.0 mm 0.00 in0.0 mm
12:16 AM 74.0°F23.3°C 21.8°F-5.7°C 14% 6.0 mph WSW9.7 kmh WSW 8.0 mph12.9 kmh 29.64 in1003.7 mb 0.00 in0.0 mm 0.00 in0.0 mm 0.00 in0.0 mm
12:15 AM 74.0°F23.3°C 21.8°F-5.7°C 14% 5.0 mph WSW8.0 kmh WSW 8.0 mph12.9 kmh 29.64 in1003.7 mb 0.00 in0.0 mm 0.00 in0.0 mm 0.00 in0.0 mm
12:14 AM 74.0°F23.3°C 21.8°F-5.7°C 14% 6.0 mph WSW9.7 kmh WSW 11.0 mph17.7 kmh 29.64 in1003.7 mb 0.00 in0.0 mm 0.00 in0.0 mm 0.00 in0.0 mm
12:13 AM 74.0°F23.3°C 21.8°F-5.7°C 14% 8.0 mph WSW12.9 kmh WSW 11.0 mph17.7 kmh 29.64 in1003.7 mb 0.00 in0.0 mm 0.00 in0.0 mm 0.00 in0.0 mm
12:12 AM 73.9°F23.3°C 21.7°F-5.7°C 14% 6.0 mph WSW9.7 kmh WSW 8.0 mph12.9 kmh 29.64 in1003.7 mb 0.00 in0.0 mm 0.00 in0.0 mm 0.00 in0.0 mm
12:11 AM 73.7°F23.2°C 21.5°F-5.8°C 14% 5.0 mph WSW8.0 kmh WSW 10.0 mph16.1 kmh 29.64 in1003.7 mb 0.00 in0.0 mm 0.00 in0.0 mm 0.00 in0.0 mm
12:10 AM 73.6°F23.1°C 21.5°F-5.8°C 14% 6.0 mph WSW9.7 kmh WSW 9.0 mph14.5 kmh 29.64 in1003.7 mb 0.00 in0.0 mm 0.00 in0.0 mm 0.00 in0.0 mm
12:09 AM 73.3°F22.9°C 21.2°F-6.0°C 14% 7.0 mph WSW11.3 kmh WSW 9.0 mph14.5 kmh 29.64 in1003.7 mb 0.00 in0.0 mm 0.00 in0.0 mm 0.00 in0.0 mm
12:08 AM 73.0°F22.8°C 21.0°F-6.1°C 14% 7.0 mph WSW11.3 kmh WSW 10.0 mph16.1 kmh 29.64 in1003.7 mb 0.00 in0.0 mm 0.00 in0.0 mm 0.00 in0.0 mm
12:07 AM 72.6°F22.6°C 22.3°F-5.4°C 15% 5.0 mph WSW8.0 kmh WSW 8.0 mph12.9 kmh 29.64 in1003.7 mb 0.00 in0.0 mm 0.00 in0.0 mm 0.00 in0.0 mm
12:06 AM 72.4°F22.4°C 22.1°F-5.5°C 15% 4.0 mph W6.4 kmh W 7.0 mph11.3 kmh 29.64 in1003.7 mb 0.00 in0.0 mm 0.00 in0.0 mm 0.00 in0.0 mm
12:05 AM 72.2°F22.3°C 23.5°F-4.7°C 16% 4.0 mph W6.4 kmh W 7.0 mph11.3 kmh 29.64 in1003.7 mb 0.00 in0.0 mm 0.00 in0.0 mm 0.00 in0.0 mm
12:04 AM 72.0°F22.2°C 23.4°F-4.8°C 16% 5.0 mph W8.0 kmh W 7.0 mph11.3 kmh 29.64 in1003.7 mb 0.00 in0.0 mm 0.00 in0.0 mm 0.00 in0.0 mm
12:03 AM 71.6°F22.0°C 23.0°F-5.0°C 16% 6.0 mph WSW9.7 kmh WSW 8.0 mph12.9 kmh 29.64 in1003.7 mb 0.00 in0.0 mm 0.00 in0.0 mm 0.00 in0.0 mm
12:02 AM 71.4°F21.9°C 24.3°F-4.3°C 17% 5.0 mph W8.0 kmh W 9.0 mph14.5 kmh 29.64 in1003.7 mb 0.00 in0.0 mm 0.00 in0.0 mm 0.00 in0.0 mm
12:01 AM 71.3°F21.8°C 24.2°F-4.3°C 17% 3.0 mph WNW4.8 kmh WNW 4.0 mph6.4 kmh 29.64 in1003.7 mb 0.00 in0.0 mm 0.00 in0.0 mm 0.00 in0.0 mm
12:00 AM 71.3°F21.8°C 24.2°F-4.3°C 17% 2.0 mph WNW3.2 kmh WNW 3.0 mph4.8 kmh 29.64 in1003.7 mb 0.00 in0.0 mm 0.00 in0.0 mm 0.00 in0.0 mm